<?xml version='1.0' encoding='UTF-8'?>
<gpx version="1.1" creator="https://www.komoot.de" xmlns="http://www.topografix.com/GPX/1/1" xmlns:xsi="http://www.w3.org/2001/XMLSchema-instance" xsi:schemaLocation="http://www.topografix.com/GPX/1/1 http://www.topografix.com/GPX/1/1/gpx.xsd">
  <metadata>
    <name>Sant'Emiliano - Discesa Valle di Sarezzo (359)</name>
    <author>
      <link href="https://www.komoot.de">
        <text>komoot</text>
        <type>text/html</type>
      </link>
    </author>
  </metadata>
  <trk>
    <name>Sant'Emiliano - Discesa Valle di Sarezzo (359)</name>
    <trkseg>
      <trkpt lat="45.647865" lon="10.198583">
        <ele>257.180497</ele>
        <time>2023-12-27T10:17:52.333Z</time>
      </trkpt>
      <trkpt lat="45.648190" lon="10.198644">
        <ele>257.180497</ele>
        <time>2023-12-27T10:18:00.066Z</time>
      </trkpt>
      <trkpt lat="45.648820" lon="10.198543">
        <ele>257.256070</ele>
        <time>2023-12-27T10:18:15.227Z</time>
      </trkpt>
      <trkpt lat="45.649055" lon="10.198537">
        <ele>257.540690</ele>
        <time>2023-12-27T10:18:21.143Z</time>
      </trkpt>
      <trkpt lat="45.649312" lon="10.198467">
        <ele>257.857497</ele>
        <time>2023-12-27T10:18:28.137Z</time>
      </trkpt>
      <trkpt lat="45.649692" lon="10.198267">
        <ele>258.347817</ele>
        <time>2023-12-27T10:18:39.815Z</time>
      </trkpt>
      <trkpt lat="45.649856" lon="10.198245">
        <ele>258.547285</ele>
        <time>2023-12-27T10:18:44.698Z</time>
      </trkpt>
      <trkpt lat="45.649980" lon="10.198295">
        <ele>258.703295</ele>
        <time>2023-12-27T10:18:48.375Z</time>
      </trkpt>
      <trkpt lat="45.650156" lon="10.198443">
        <ele>258.950518</ele>
        <time>2023-12-27T10:18:54.224Z</time>
      </trkpt>
      <trkpt lat="45.650238" lon="10.198480">
        <ele>259.054639</ele>
        <time>2023-12-27T10:18:56.684Z</time>
      </trkpt>
      <trkpt lat="45.650477" lon="10.198511">
        <ele>259.345244</ele>
        <time>2023-12-27T10:19:03.318Z</time>
      </trkpt>
      <trkpt lat="45.651230" lon="10.198874">
        <ele>260.490737</ele>
        <time>2023-12-27T10:19:25.907Z</time>
      </trkpt>
      <trkpt lat="45.651492" lon="10.198938">
        <ele>260.874761</ele>
        <time>2023-12-27T10:19:33.829Z</time>
      </trkpt>
      <trkpt lat="45.651780" lon="10.198945">
        <ele>261.290932</ele>
        <time>2023-12-27T10:19:42.625Z</time>
      </trkpt>
      <trkpt lat="45.652267" lon="10.198811">
        <ele>261.985617</ele>
        <time>2023-12-27T10:19:57.101Z</time>
      </trkpt>
      <trkpt lat="45.652878" lon="10.198630">
        <ele>262.494529</ele>
        <time>2023-12-27T10:20:12.694Z</time>
      </trkpt>
      <trkpt lat="45.653103" lon="10.198505">
        <ele>262.691394</ele>
        <time>2023-12-27T10:20:18.173Z</time>
      </trkpt>
      <trkpt lat="45.653275" lon="10.198483">
        <ele>262.832239</ele>
        <time>2023-12-27T10:20:22.404Z</time>
      </trkpt>
      <trkpt lat="45.653375" lon="10.198398">
        <ele>262.927110</ele>
        <time>2023-12-27T10:20:26.372Z</time>
      </trkpt>
      <trkpt lat="45.654365" lon="10.197441">
        <ele>264.127088</ele>
        <time>2023-12-27T10:20:54.561Z</time>
      </trkpt>
      <trkpt lat="45.654444" lon="10.197264">
        <ele>264.303369</ele>
        <time>2023-12-27T10:20:58.265Z</time>
      </trkpt>
      <trkpt lat="45.654943" lon="10.196929">
        <ele>264.965313</ele>
        <time>2023-12-27T10:21:11.807Z</time>
      </trkpt>
      <trkpt lat="45.655041" lon="10.196909">
        <ele>265.084192</ele>
        <time>2023-12-27T10:21:14.479Z</time>
      </trkpt>
      <trkpt lat="45.655094" lon="10.196897">
        <ele>265.148631</ele>
        <time>2023-12-27T10:21:15.898Z</time>
      </trkpt>
      <trkpt lat="45.655118" lon="10.196891">
        <ele>265.177889</ele>
        <time>2023-12-27T10:21:16.530Z</time>
      </trkpt>
      <trkpt lat="45.655659" lon="10.196742">
        <ele>265.934133</ele>
        <time>2023-12-27T10:21:32.719Z</time>
      </trkpt>
      <trkpt lat="45.655716" lon="10.196721">
        <ele>266.031026</ele>
        <time>2023-12-27T10:21:34.514Z</time>
      </trkpt>
      <trkpt lat="45.656018" lon="10.196656">
        <ele>266.533763</ele>
        <time>2023-12-27T10:21:43.335Z</time>
      </trkpt>
      <trkpt lat="45.656560" lon="10.196699">
        <ele>267.427356</ele>
        <time>2023-12-27T10:21:58.662Z</time>
      </trkpt>
      <trkpt lat="45.657004" lon="10.196850">
        <ele>268.178621</ele>
        <time>2023-12-27T10:22:11.136Z</time>
      </trkpt>
      <trkpt lat="45.657295" lon="10.196817">
        <ele>268.620387</ele>
        <time>2023-12-27T10:22:18.888Z</time>
      </trkpt>
      <trkpt lat="45.657706" lon="10.196643">
        <ele>269.086010</ele>
        <time>2023-12-27T10:22:30.061Z</time>
      </trkpt>
      <trkpt lat="45.658128" lon="10.196251">
        <ele>269.632594</ele>
        <time>2023-12-27T10:22:42.253Z</time>
      </trkpt>
      <trkpt lat="45.658226" lon="10.196119">
        <ele>269.778810</ele>
        <time>2023-12-27T10:22:45.554Z</time>
      </trkpt>
      <trkpt lat="45.658562" lon="10.195715">
        <ele>270.255600</ele>
        <time>2023-12-27T10:22:55.470Z</time>
      </trkpt>
      <trkpt lat="45.658822" lon="10.195433">
        <ele>270.658943</ele>
        <time>2023-12-27T10:23:03.533Z</time>
      </trkpt>
      <trkpt lat="45.658863" lon="10.195518">
        <ele>270.771929</ele>
        <time>2023-12-27T10:23:05.334Z</time>
      </trkpt>
      <trkpt lat="45.659169" lon="10.196067">
        <ele>271.540139</ele>
        <time>2023-12-27T10:23:18.840Z</time>
      </trkpt>
      <trkpt lat="45.659253" lon="10.196200">
        <ele>271.736248</ele>
        <time>2023-12-27T10:23:22.238Z</time>
      </trkpt>
      <trkpt lat="45.659439" lon="10.196383">
        <ele>272.089579</ele>
        <time>2023-12-27T10:23:28.552Z</time>
      </trkpt>
      <trkpt lat="45.659549" lon="10.196543">
        <ele>272.335109</ele>
        <time>2023-12-27T10:23:32.845Z</time>
      </trkpt>
      <trkpt lat="45.659581" lon="10.196728">
        <ele>272.543604</ele>
        <time>2023-12-27T10:23:36.408Z</time>
      </trkpt>
      <trkpt lat="45.659576" lon="10.197115">
        <ele>272.967053</ele>
        <time>2023-12-27T10:23:43.885Z</time>
      </trkpt>
      <trkpt lat="45.659582" lon="10.197340">
        <ele>273.213382</ele>
        <time>2023-12-27T10:23:48.574Z</time>
      </trkpt>
      <trkpt lat="45.659583" lon="10.197470">
        <ele>273.398469</ele>
        <time>2023-12-27T10:23:51.178Z</time>
      </trkpt>
      <trkpt lat="45.659598" lon="10.197563">
        <ele>273.611609</ele>
        <time>2023-12-27T10:23:52.912Z</time>
      </trkpt>
      <trkpt lat="45.659577" lon="10.197599">
        <ele>273.716324</ele>
        <time>2023-12-27T10:23:53.722Z</time>
      </trkpt>
      <trkpt lat="45.659551" lon="10.197723">
        <ele>274.005426</ele>
        <time>2023-12-27T10:23:56.402Z</time>
      </trkpt>
      <trkpt lat="45.659579" lon="10.197847">
        <ele>274.296429</ele>
        <time>2023-12-27T10:23:59.318Z</time>
      </trkpt>
      <trkpt lat="45.659627" lon="10.197912">
        <ele>274.507595</ele>
        <time>2023-12-27T10:24:01.327Z</time>
      </trkpt>
      <trkpt lat="45.659708" lon="10.197943">
        <ele>274.775499</ele>
        <time>2023-12-27T10:24:03.590Z</time>
      </trkpt>
      <trkpt lat="45.659788" lon="10.197910">
        <ele>275.041521</ele>
        <time>2023-12-27T10:24:06.008Z</time>
      </trkpt>
      <trkpt lat="45.659941" lon="10.197974">
        <ele>275.550839</ele>
        <time>2023-12-27T10:24:11.163Z</time>
      </trkpt>
      <trkpt lat="45.660022" lon="10.197971">
        <ele>275.809731</ele>
        <time>2023-12-27T10:24:13.524Z</time>
      </trkpt>
      <trkpt lat="45.660410" lon="10.198088">
        <ele>277.076676</ele>
        <time>2023-12-27T10:24:27.374Z</time>
      </trkpt>
      <trkpt lat="45.660566" lon="10.198125">
        <ele>277.581918</ele>
        <time>2023-12-27T10:24:33.808Z</time>
      </trkpt>
      <trkpt lat="45.660797" lon="10.198116">
        <ele>278.320267</ele>
        <time>2023-12-27T10:24:44.578Z</time>
      </trkpt>
      <trkpt lat="45.661215" lon="10.198055">
        <ele>280.729595</ele>
        <time>2023-12-27T10:25:01.760Z</time>
      </trkpt>
      <trkpt lat="45.661363" lon="10.198028">
        <ele>282.051929</ele>
        <time>2023-12-27T10:25:07.495Z</time>
      </trkpt>
      <trkpt lat="45.661546" lon="10.198015">
        <ele>283.675845</ele>
        <time>2023-12-27T10:25:15.355Z</time>
      </trkpt>
      <trkpt lat="45.661653" lon="10.198046">
        <ele>284.643425</ele>
        <time>2023-12-27T10:25:19.391Z</time>
      </trkpt>
      <trkpt lat="45.661690" lon="10.198821">
        <ele>289.455159</ele>
        <time>2023-12-27T10:25:46.571Z</time>
      </trkpt>
      <trkpt lat="45.661749" lon="10.198841">
        <ele>289.992547</ele>
        <time>2023-12-27T10:25:51.152Z</time>
      </trkpt>
      <trkpt lat="45.661832" lon="10.198820">
        <ele>290.739583</ele>
        <time>2023-12-27T10:25:56.965Z</time>
      </trkpt>
      <trkpt lat="45.662138" lon="10.198702">
        <ele>293.548410</ele>
        <time>2023-12-27T10:26:25.281Z</time>
      </trkpt>
      <trkpt lat="45.662427" lon="10.198715">
        <ele>297.589832</ele>
        <time>2023-12-27T10:26:56.074Z</time>
      </trkpt>
      <trkpt lat="45.662554" lon="10.198681">
        <ele>300.262654</ele>
        <time>2023-12-27T10:27:09.470Z</time>
      </trkpt>
      <trkpt lat="45.662846" lon="10.198510">
        <ele>306.789558</ele>
        <time>2023-12-27T10:27:47.239Z</time>
      </trkpt>
      <trkpt lat="45.662866" lon="10.198566">
        <ele>307.698773</ele>
        <time>2023-12-27T10:27:52.495Z</time>
      </trkpt>
      <trkpt lat="45.662930" lon="10.198764">
        <ele>310.852720</ele>
        <time>2023-12-27T10:28:11.586Z</time>
      </trkpt>
      <trkpt lat="45.663190" lon="10.199236">
        <ele>319.541548</ele>
        <time>2023-12-27T10:29:03.246Z</time>
      </trkpt>
      <trkpt lat="45.663190" lon="10.199236">
        <ele>319.541548</ele>
        <time>2023-12-27T10:29:03.273Z</time>
      </trkpt>
      <trkpt lat="45.663190" lon="10.199236">
        <ele>319.541548</ele>
        <time>2023-12-27T10:29:03.273Z</time>
      </trkpt>
      <trkpt lat="45.663454" lon="10.199533">
        <ele>326.488742</ele>
        <time>2023-12-27T10:29:17.916Z</time>
      </trkpt>
      <trkpt lat="45.663842" lon="10.199771">
        <ele>335.543335</ele>
        <time>2023-12-27T10:30:14.131Z</time>
      </trkpt>
      <trkpt lat="45.664029" lon="10.199949">
        <ele>340.685913</ele>
        <time>2023-12-27T10:30:44.381Z</time>
      </trkpt>
      <trkpt lat="45.664238" lon="10.200210">
        <ele>347.037561</ele>
        <time>2023-12-27T10:31:21.726Z</time>
      </trkpt>
      <trkpt lat="45.664494" lon="10.200351">
        <ele>353.318409</ele>
        <time>2023-12-27T10:31:58.633Z</time>
      </trkpt>
      <trkpt lat="45.664651" lon="10.200542">
        <ele>358.036858</ele>
        <time>2023-12-27T10:32:26.491Z</time>
      </trkpt>
      <trkpt lat="45.664747" lon="10.200660">
        <ele>360.934603</ele>
        <time>2023-12-27T10:32:42.391Z</time>
      </trkpt>
      <trkpt lat="45.664845" lon="10.200838">
        <ele>364.560592</ele>
        <time>2023-12-27T10:33:03.486Z</time>
      </trkpt>
      <trkpt lat="45.664892" lon="10.200921">
        <ele>366.269990</ele>
        <time>2023-12-27T10:33:11.700Z</time>
      </trkpt>
      <trkpt lat="45.664926" lon="10.200925">
        <ele>367.051111</ele>
        <time>2023-12-27T10:33:14.398Z</time>
      </trkpt>
      <trkpt lat="45.665065" lon="10.200992">
        <ele>370.409502</ele>
        <time>2023-12-27T10:33:27.243Z</time>
      </trkpt>
      <trkpt lat="45.664949" lon="10.201098">
        <ele>373.451379</ele>
        <time>2023-12-27T10:33:42.005Z</time>
      </trkpt>
      <trkpt lat="45.664933" lon="10.201151">
        <ele>373.768041</ele>
        <time>2023-12-27T10:33:45.158Z</time>
      </trkpt>
      <trkpt lat="45.664972" lon="10.201574">
        <ele>376.108250</ele>
        <time>2023-12-27T10:34:06.365Z</time>
      </trkpt>
      <trkpt lat="45.665030" lon="10.202206">
        <ele>379.604454</ele>
        <time>2023-12-27T10:34:27.943Z</time>
      </trkpt>
      <trkpt lat="45.665093" lon="10.202346">
        <ele>380.517757</ele>
        <time>2023-12-27T10:34:30.961Z</time>
      </trkpt>
      <trkpt lat="45.665185" lon="10.202355">
        <ele>381.241496</ele>
        <time>2023-12-27T10:34:36.900Z</time>
      </trkpt>
      <trkpt lat="45.665347" lon="10.202058">
        <ele>383.307945</ele>
        <time>2023-12-27T10:34:46.995Z</time>
      </trkpt>
      <trkpt lat="45.665520" lon="10.201759">
        <ele>385.437038</ele>
        <time>2023-12-27T10:35:02.488Z</time>
      </trkpt>
      <trkpt lat="45.665677" lon="10.201570">
        <ele>387.047293</ele>
        <time>2023-12-27T10:35:16.250Z</time>
      </trkpt>
      <trkpt lat="45.666048" lon="10.201011">
        <ele>393.008482</ele>
        <time>2023-12-27T10:35:38.541Z</time>
      </trkpt>
      <trkpt lat="45.666156" lon="10.200913">
        <ele>394.474137</ele>
        <time>2023-12-27T10:35:43.961Z</time>
      </trkpt>
      <trkpt lat="45.666235" lon="10.200908">
        <ele>395.380426</ele>
        <time>2023-12-27T10:35:47.759Z</time>
      </trkpt>
      <trkpt lat="45.666359" lon="10.200925">
        <ele>396.808073</ele>
        <time>2023-12-27T10:35:50.758Z</time>
      </trkpt>
      <trkpt lat="45.666439" lon="10.200972">
        <ele>397.799205</ele>
        <time>2023-12-27T10:35:54.175Z</time>
      </trkpt>
      <trkpt lat="45.666580" lon="10.201116">
        <ele>399.784532</ele>
        <time>2023-12-27T10:36:08.103Z</time>
      </trkpt>
      <trkpt lat="45.666732" lon="10.201359">
        <ele>402.396527</ele>
        <time>2023-12-27T10:36:28.353Z</time>
      </trkpt>
      <trkpt lat="45.666876" lon="10.201471">
        <ele>404.274911</ele>
        <time>2023-12-27T10:36:49.119Z</time>
      </trkpt>
      <trkpt lat="45.667071" lon="10.201537">
        <ele>406.571431</ele>
        <time>2023-12-27T10:37:15.642Z</time>
      </trkpt>
      <trkpt lat="45.667066" lon="10.201595">
        <ele>407.039481</ele>
        <time>2023-12-27T10:37:21.084Z</time>
      </trkpt>
      <trkpt lat="45.666771" lon="10.201651">
        <ele>411.686065</ele>
        <time>2023-12-27T10:37:55.877Z</time>
      </trkpt>
      <trkpt lat="45.666740" lon="10.201693">
        <ele>412.435392</ele>
        <time>2023-12-27T10:38:01.596Z</time>
      </trkpt>
      <trkpt lat="45.666789" lon="10.201776">
        <ele>413.768154</ele>
        <time>2023-12-27T10:38:11.543Z</time>
      </trkpt>
      <trkpt lat="45.667013" lon="10.201852">
        <ele>417.808934</ele>
        <time>2023-12-27T10:38:38.017Z</time>
      </trkpt>
      <trkpt lat="45.667228" lon="10.202001">
        <ele>422.002014</ele>
        <time>2023-12-27T10:39:06.451Z</time>
      </trkpt>
      <trkpt lat="45.667439" lon="10.202278">
        <ele>427.028054</ele>
        <time>2023-12-27T10:39:37.492Z</time>
      </trkpt>
      <trkpt lat="45.667593" lon="10.202406">
        <ele>430.154044</ele>
        <time>2023-12-27T10:39:53.403Z</time>
      </trkpt>
      <trkpt lat="45.667584" lon="10.202461">
        <ele>430.846927</ele>
        <time>2023-12-27T10:39:58.198Z</time>
      </trkpt>
      <trkpt lat="45.667550" lon="10.202491">
        <ele>431.548045</ele>
        <time>2023-12-27T10:40:03.333Z</time>
      </trkpt>
      <trkpt lat="45.667503" lon="10.202480">
        <ele>432.383976</ele>
        <time>2023-12-27T10:40:07.684Z</time>
      </trkpt>
      <trkpt lat="45.667293" lon="10.202312">
        <ele>436.606936</ele>
        <time>2023-12-27T10:40:26.421Z</time>
      </trkpt>
      <trkpt lat="45.666904" lon="10.202325">
        <ele>442.368193</ele>
        <time>2023-12-27T10:41:06.879Z</time>
      </trkpt>
      <trkpt lat="45.666727" lon="10.202378">
        <ele>444.635741</ele>
        <time>2023-12-27T10:41:22.613Z</time>
      </trkpt>
      <trkpt lat="45.666400" lon="10.202706">
        <ele>449.643185</ele>
        <time>2023-12-27T10:41:54.010Z</time>
      </trkpt>
      <trkpt lat="45.666389" lon="10.202773">
        <ele>450.246290</ele>
        <time>2023-12-27T10:41:57.371Z</time>
      </trkpt>
      <trkpt lat="45.666407" lon="10.202848">
        <ele>450.941191</ele>
        <time>2023-12-27T10:42:01.249Z</time>
      </trkpt>
      <trkpt lat="45.666559" lon="10.202813">
        <ele>452.871701</ele>
        <time>2023-12-27T10:42:11.131Z</time>
      </trkpt>
      <trkpt lat="45.666753" lon="10.202821">
        <ele>455.305357</ele>
        <time>2023-12-27T10:42:20.255Z</time>
      </trkpt>
      <trkpt lat="45.666994" lon="10.202874">
        <ele>458.362836</ele>
        <time>2023-12-27T10:42:38.494Z</time>
      </trkpt>
      <trkpt lat="45.667054" lon="10.202901">
        <ele>459.151526</ele>
        <time>2023-12-27T10:42:43.642Z</time>
      </trkpt>
      <trkpt lat="45.667054" lon="10.202994">
        <ele>459.966474</ele>
        <time>2023-12-27T10:42:49.215Z</time>
      </trkpt>
      <trkpt lat="45.666954" lon="10.203053">
        <ele>461.322817</ele>
        <time>2023-12-27T10:42:59.341Z</time>
      </trkpt>
      <trkpt lat="45.666883" lon="10.203045">
        <ele>462.215872</ele>
        <time>2023-12-27T10:43:06.091Z</time>
      </trkpt>
      <trkpt lat="45.666755" lon="10.203130">
        <ele>464.566037</ele>
        <time>2023-12-27T10:43:19.902Z</time>
      </trkpt>
      <trkpt lat="45.666633" lon="10.203307">
        <ele>467.473333</ele>
        <time>2023-12-27T10:43:38.194Z</time>
      </trkpt>
      <trkpt lat="45.666351" lon="10.203958">
        <ele>476.430272</ele>
        <time>2023-12-27T10:44:34.720Z</time>
      </trkpt>
      <trkpt lat="45.666305" lon="10.204021">
        <ele>477.495791</ele>
        <time>2023-12-27T10:44:41.367Z</time>
      </trkpt>
      <trkpt lat="45.666226" lon="10.204356">
        <ele>481.630442</ele>
        <time>2023-12-27T10:45:06.793Z</time>
      </trkpt>
      <trkpt lat="45.666245" lon="10.204722">
        <ele>485.922375</ele>
        <time>2023-12-27T10:45:34.302Z</time>
      </trkpt>
      <trkpt lat="45.666209" lon="10.205039">
        <ele>489.678120</ele>
        <time>2023-12-27T10:45:58.428Z</time>
      </trkpt>
      <trkpt lat="45.666217" lon="10.205070">
        <ele>490.064574</ele>
        <time>2023-12-27T10:46:01.010Z</time>
      </trkpt>
      <trkpt lat="45.666260" lon="10.205052">
        <ele>490.814296</ele>
        <time>2023-12-27T10:46:06.098Z</time>
      </trkpt>
      <trkpt lat="45.666377" lon="10.204663">
        <ele>496.128654</ele>
        <time>2023-12-27T10:46:38.907Z</time>
      </trkpt>
      <trkpt lat="45.666472" lon="10.204510">
        <ele>498.775402</ele>
        <time>2023-12-27T10:46:55.335Z</time>
      </trkpt>
      <trkpt lat="45.666553" lon="10.204431">
        <ele>500.589355</ele>
        <time>2023-12-27T10:47:05.909Z</time>
      </trkpt>
      <trkpt lat="45.666900" lon="10.204238">
        <ele>507.478586</ele>
        <time>2023-12-27T10:47:47.740Z</time>
      </trkpt>
      <trkpt lat="45.667202" lon="10.204161">
        <ele>513.155112</ele>
        <time>2023-12-27T10:48:20.868Z</time>
      </trkpt>
      <trkpt lat="45.667429" lon="10.204143">
        <ele>517.362190</ele>
        <time>2023-12-27T10:48:46.085Z</time>
      </trkpt>
      <trkpt lat="45.667624" lon="10.204186">
        <ele>521.013257</ele>
        <time>2023-12-27T10:49:08.088Z</time>
      </trkpt>
      <trkpt lat="45.667650" lon="10.204237">
        <ele>521.829618</ele>
        <time>2023-12-27T10:49:13.310Z</time>
      </trkpt>
      <trkpt lat="45.667642" lon="10.204273">
        <ele>522.318129</ele>
        <time>2023-12-27T10:49:16.509Z</time>
      </trkpt>
      <trkpt lat="45.667482" lon="10.204353">
        <ele>525.454463</ele>
        <time>2023-12-27T10:49:36.215Z</time>
      </trkpt>
      <trkpt lat="45.667344" lon="10.204472">
        <ele>528.360220</ele>
        <time>2023-12-27T10:49:54.903Z</time>
      </trkpt>
      <trkpt lat="45.667198" lon="10.204641">
        <ele>531.741329</ele>
        <time>2023-12-27T10:50:17.431Z</time>
      </trkpt>
      <trkpt lat="45.666860" lon="10.205152">
        <ele>540.594331</ele>
        <time>2023-12-27T10:51:16.159Z</time>
      </trkpt>
      <trkpt lat="45.666798" lon="10.205344">
        <ele>543.255607</ele>
        <time>2023-12-27T10:51:33.530Z</time>
      </trkpt>
      <trkpt lat="45.666754" lon="10.205606">
        <ele>546.646067</ele>
        <time>2023-12-27T10:51:54.909Z</time>
      </trkpt>
      <trkpt lat="45.666742" lon="10.205911">
        <ele>550.489797</ele>
        <time>2023-12-27T10:52:17.343Z</time>
      </trkpt>
      <trkpt lat="45.666645" lon="10.206349">
        <ele>556.271036</ele>
        <time>2023-12-27T10:52:50.069Z</time>
      </trkpt>
      <trkpt lat="45.666574" lon="10.206398">
        <ele>557.690305</ele>
        <time>2023-12-27T10:52:57.787Z</time>
      </trkpt>
      <trkpt lat="45.666373" lon="10.206399">
        <ele>559.643389</ele>
        <time>2023-12-27T10:53:17.672Z</time>
      </trkpt>
      <trkpt lat="45.666246" lon="10.206503">
        <ele>560.945083</ele>
        <time>2023-12-27T10:53:30.018Z</time>
      </trkpt>
      <trkpt lat="45.666212" lon="10.206568">
        <ele>561.449830</ele>
        <time>2023-12-27T10:53:35.131Z</time>
      </trkpt>
      <trkpt lat="45.665994" lon="10.206986">
        <ele>564.692308</ele>
        <time>2023-12-27T10:53:58.671Z</time>
      </trkpt>
      <trkpt lat="45.665491" lon="10.207876">
        <ele>571.808199</ele>
        <time>2023-12-27T10:54:34.139Z</time>
      </trkpt>
      <trkpt lat="45.665375" lon="10.208021">
        <ele>573.178403</ele>
        <time>2023-12-27T10:54:40.945Z</time>
      </trkpt>
      <trkpt lat="45.665266" lon="10.208073">
        <ele>574.271062</ele>
        <time>2023-12-27T10:54:47.897Z</time>
      </trkpt>
      <trkpt lat="45.665064" lon="10.208032">
        <ele>576.783381</ele>
        <time>2023-12-27T10:55:00.008Z</time>
      </trkpt>
      <trkpt lat="45.664922" lon="10.207964">
        <ele>578.627285</ele>
        <time>2023-12-27T10:55:09.484Z</time>
      </trkpt>
      <trkpt lat="45.664813" lon="10.207913">
        <ele>580.039440</ele>
        <time>2023-12-27T10:55:17.336Z</time>
      </trkpt>
      <trkpt lat="45.664722" lon="10.207906">
        <ele>581.161628</ele>
        <time>2023-12-27T10:55:22.319Z</time>
      </trkpt>
      <trkpt lat="45.664681" lon="10.207926">
        <ele>581.695031</ele>
        <time>2023-12-27T10:55:24.656Z</time>
      </trkpt>
      <trkpt lat="45.664675" lon="10.207986">
        <ele>582.216632</ele>
        <time>2023-12-27T10:55:26.990Z</time>
      </trkpt>
      <trkpt lat="45.664728" lon="10.208022">
        <ele>582.939071</ele>
        <time>2023-12-27T10:55:31.424Z</time>
      </trkpt>
      <trkpt lat="45.664822" lon="10.208041">
        <ele>584.108074</ele>
        <time>2023-12-27T10:55:39.043Z</time>
      </trkpt>
      <trkpt lat="45.665259" lon="10.208456">
        <ele>590.566539</ele>
        <time>2023-12-27T10:56:20.131Z</time>
      </trkpt>
      <trkpt lat="45.665486" lon="10.208438">
        <ele>593.366096</ele>
        <time>2023-12-27T10:56:42.667Z</time>
      </trkpt>
      <trkpt lat="45.666018" lon="10.208076">
        <ele>601.877403</ele>
        <time>2023-12-27T10:57:54.678Z</time>
      </trkpt>
      <trkpt lat="45.666147" lon="10.207953">
        <ele>604.325009</ele>
        <time>2023-12-27T10:58:15.369Z</time>
      </trkpt>
      <trkpt lat="45.666336" lon="10.207862">
        <ele>607.473623</ele>
        <time>2023-12-27T10:58:41.559Z</time>
      </trkpt>
      <trkpt lat="45.666765" lon="10.207695">
        <ele>614.493482</ele>
        <time>2023-12-27T10:59:27.476Z</time>
      </trkpt>
      <trkpt lat="45.667063" lon="10.207731">
        <ele>619.215484</ele>
        <time>2023-12-27T10:59:49.638Z</time>
      </trkpt>
      <trkpt lat="45.667147" lon="10.207672">
        <ele>620.692959</ele>
        <time>2023-12-27T10:59:53.767Z</time>
      </trkpt>
      <trkpt lat="45.667195" lon="10.207691">
        <ele>621.479315</ele>
        <time>2023-12-27T10:59:56.767Z</time>
      </trkpt>
      <trkpt lat="45.667202" lon="10.207742">
        <ele>622.052805</ele>
        <time>2023-12-27T10:59:59.018Z</time>
      </trkpt>
      <trkpt lat="45.667100" lon="10.207934">
        <ele>624.685263</ele>
        <time>2023-12-27T11:00:11.179Z</time>
      </trkpt>
      <trkpt lat="45.666839" lon="10.208014">
        <ele>628.086682</ele>
        <time>2023-12-27T11:00:28.916Z</time>
      </trkpt>
      <trkpt lat="45.666677" lon="10.208191">
        <ele>630.684043</ele>
        <time>2023-12-27T11:00:43.890Z</time>
      </trkpt>
      <trkpt lat="45.666577" lon="10.208398">
        <ele>632.925035</ele>
        <time>2023-12-27T11:00:57.974Z</time>
      </trkpt>
      <trkpt lat="45.666518" lon="10.208439">
        <ele>633.760851</ele>
        <time>2023-12-27T11:01:03.778Z</time>
      </trkpt>
      <trkpt lat="45.666335" lon="10.208752">
        <ele>637.395100</ele>
        <time>2023-12-27T11:01:25.892Z</time>
      </trkpt>
      <trkpt lat="45.666280" lon="10.208935">
        <ele>639.169111</ele>
        <time>2023-12-27T11:01:37.646Z</time>
      </trkpt>
      <trkpt lat="45.666273" lon="10.209048">
        <ele>640.179368</ele>
        <time>2023-12-27T11:01:43.294Z</time>
      </trkpt>
      <trkpt lat="45.666306" lon="10.209125">
        <ele>640.983761</ele>
        <time>2023-12-27T11:01:48.328Z</time>
      </trkpt>
      <trkpt lat="45.666371" lon="10.209116">
        <ele>641.815938</ele>
        <time>2023-12-27T11:01:53.975Z</time>
      </trkpt>
      <trkpt lat="45.666603" lon="10.208904">
        <ele>645.323750</ele>
        <time>2023-12-27T11:02:16.713Z</time>
      </trkpt>
      <trkpt lat="45.666779" lon="10.208751">
        <ele>648.398025</ele>
        <time>2023-12-27T11:02:36.992Z</time>
      </trkpt>
      <trkpt lat="45.666932" lon="10.208672">
        <ele>652.487558</ele>
        <time>2023-12-27T11:02:52.715Z</time>
      </trkpt>
      <trkpt lat="45.667260" lon="10.208653">
        <ele>660.740978</ele>
        <time>2023-12-27T11:03:31.905Z</time>
      </trkpt>
      <trkpt lat="45.667966" lon="10.208507">
        <ele>678.675822</ele>
        <time>2023-12-27T11:05:07.942Z</time>
      </trkpt>
      <trkpt lat="45.668132" lon="10.208423">
        <ele>683.102700</ele>
        <time>2023-12-27T11:05:31.744Z</time>
      </trkpt>
      <trkpt lat="45.668307" lon="10.208273">
        <ele>688.231515</ele>
        <time>2023-12-27T11:05:59.461Z</time>
      </trkpt>
      <trkpt lat="45.668625" lon="10.208142">
        <ele>695.655262</ele>
        <time>2023-12-27T11:06:44.149Z</time>
      </trkpt>
      <trkpt lat="45.669047" lon="10.208181">
        <ele>703.808633</ele>
        <time>2023-12-27T11:07:40.861Z</time>
      </trkpt>
      <trkpt lat="45.669368" lon="10.208331">
        <ele>710.319325</ele>
        <time>2023-12-27T11:08:24.048Z</time>
      </trkpt>
      <trkpt lat="45.669499" lon="10.208445">
        <ele>713.275439</ele>
        <time>2023-12-27T11:08:40.030Z</time>
      </trkpt>
      <trkpt lat="45.669885" lon="10.209000">
        <ele>723.825453</ele>
        <time>2023-12-27T11:09:22.487Z</time>
      </trkpt>
      <trkpt lat="45.670090" lon="10.209141">
        <ele>727.736798</ele>
        <time>2023-12-27T11:09:38.690Z</time>
      </trkpt>
      <trkpt lat="45.670066" lon="10.209195">
        <ele>728.103278</ele>
        <time>2023-12-27T11:09:41.887Z</time>
      </trkpt>
      <trkpt lat="45.669983" lon="10.209236">
        <ele>728.822840</ele>
        <time>2023-12-27T11:09:47.544Z</time>
      </trkpt>
      <trkpt lat="45.669409" lon="10.209051">
        <ele>733.644560</ele>
        <time>2023-12-27T11:10:24.749Z</time>
      </trkpt>
      <trkpt lat="45.669164" lon="10.209079">
        <ele>735.658712</ele>
        <time>2023-12-27T11:10:37.115Z</time>
      </trkpt>
      <trkpt lat="45.669061" lon="10.209125">
        <ele>736.542941</ele>
        <time>2023-12-27T11:10:43.193Z</time>
      </trkpt>
      <trkpt lat="45.668992" lon="10.209223">
        <ele>737.339617</ele>
        <time>2023-12-27T11:10:47.738Z</time>
      </trkpt>
      <trkpt lat="45.668959" lon="10.209344">
        <ele>738.083443</ele>
        <time>2023-12-27T11:10:51.355Z</time>
      </trkpt>
      <trkpt lat="45.668955" lon="10.209427">
        <ele>738.559884</ele>
        <time>2023-12-27T11:10:54.063Z</time>
      </trkpt>
      <trkpt lat="45.668981" lon="10.209488">
        <ele>738.969061</ele>
        <time>2023-12-27T11:10:56.494Z</time>
      </trkpt>
      <trkpt lat="45.669451" lon="10.209811">
        <ele>744.528522</ele>
        <time>2023-12-27T11:11:21.630Z</time>
      </trkpt>
      <trkpt lat="45.669640" lon="10.210000">
        <ele>748.597319</ele>
        <time>2023-12-27T11:11:38.518Z</time>
      </trkpt>
      <trkpt lat="45.670124" lon="10.210257">
        <ele>757.707189</ele>
        <time>2023-12-27T11:12:30.993Z</time>
      </trkpt>
      <trkpt lat="45.670514" lon="10.210343">
        <ele>764.670521</ele>
        <time>2023-12-27T11:13:23.633Z</time>
      </trkpt>
      <trkpt lat="45.671164" lon="10.210101">
        <ele>776.663549</ele>
        <time>2023-12-27T11:14:53.184Z</time>
      </trkpt>
      <trkpt lat="45.671408" lon="10.210087">
        <ele>781.201492</ele>
        <time>2023-12-27T11:15:24.751Z</time>
      </trkpt>
      <trkpt lat="45.671793" lon="10.209963">
        <ele>788.534979</ele>
        <time>2023-12-27T11:16:03.758Z</time>
      </trkpt>
      <trkpt lat="45.671981" lon="10.209977">
        <ele>792.033346</ele>
        <time>2023-12-27T11:16:25.031Z</time>
      </trkpt>
      <trkpt lat="45.672195" lon="10.210092">
        <ele>796.281279</ele>
        <time>2023-12-27T11:16:48.579Z</time>
      </trkpt>
      <trkpt lat="45.672390" lon="10.210264">
        <ele>800.538004</ele>
        <time>2023-12-27T11:17:13.085Z</time>
      </trkpt>
      <trkpt lat="45.672688" lon="10.210299">
        <ele>806.094415</ele>
        <time>2023-12-27T11:17:45.978Z</time>
      </trkpt>
      <trkpt lat="45.672711" lon="10.210322">
        <ele>806.615835</ele>
        <time>2023-12-27T11:17:48.622Z</time>
      </trkpt>
      <trkpt lat="45.672705" lon="10.210373">
        <ele>807.287397</ele>
        <time>2023-12-27T11:17:51.499Z</time>
      </trkpt>
      <trkpt lat="45.672483" lon="10.210532">
        <ele>811.427822</ele>
        <time>2023-12-27T11:18:18.357Z</time>
      </trkpt>
      <trkpt lat="45.672453" lon="10.210589">
        <ele>812.259410</ele>
        <time>2023-12-27T11:18:23.298Z</time>
      </trkpt>
      <trkpt lat="45.672497" lon="10.210679">
        <ele>813.539432</ele>
        <time>2023-12-27T11:18:29.155Z</time>
      </trkpt>
      <trkpt lat="45.672747" lon="10.210587">
        <ele>817.844388</ele>
        <time>2023-12-27T11:18:56.280Z</time>
      </trkpt>
      <trkpt lat="45.673109" lon="10.210282">
        <ele>824.850116</ele>
        <time>2023-12-27T11:19:34.808Z</time>
      </trkpt>
      <trkpt lat="45.673602" lon="10.209927">
        <ele>834.054109</ele>
        <time>2023-12-27T11:20:25.439Z</time>
      </trkpt>
      <trkpt lat="45.674178" lon="10.209276">
        <ele>849.148414</ele>
        <time>2023-12-27T11:21:59.501Z</time>
      </trkpt>
      <trkpt lat="45.674413" lon="10.208941">
        <ele>856.432654</ele>
        <time>2023-12-27T11:22:43.677Z</time>
      </trkpt>
      <trkpt lat="45.674686" lon="10.208458">
        <ele>865.965585</ele>
        <time>2023-12-27T11:23:41.589Z</time>
      </trkpt>
      <trkpt lat="45.674793" lon="10.208349">
        <ele>868.849910</ele>
        <time>2023-12-27T11:23:58.133Z</time>
      </trkpt>
      <trkpt lat="45.675132" lon="10.208228">
        <ele>876.522772</ele>
        <time>2023-12-27T11:24:44.626Z</time>
      </trkpt>
      <trkpt lat="45.675324" lon="10.208153">
        <ele>880.357414</ele>
        <time>2023-12-27T11:25:11.109Z</time>
      </trkpt>
      <trkpt lat="45.675931" lon="10.207514">
        <ele>894.745135</ele>
        <time>2023-12-27T11:26:45.795Z</time>
      </trkpt>
      <trkpt lat="45.676203" lon="10.207330">
        <ele>900.489613</ele>
        <time>2023-12-27T11:27:20.295Z</time>
      </trkpt>
      <trkpt lat="45.676373" lon="10.207083">
        <ele>905.115102</ele>
        <time>2023-12-27T11:27:44.815Z</time>
      </trkpt>
      <trkpt lat="45.676679" lon="10.206504">
        <ele>914.357680</ele>
        <time>2023-12-27T11:28:29.718Z</time>
      </trkpt>
      <trkpt lat="45.676980" lon="10.206048">
        <ele>921.717079</ele>
        <time>2023-12-27T11:29:09.627Z</time>
      </trkpt>
      <trkpt lat="45.677045" lon="10.205591">
        <ele>927.188366</ele>
        <time>2023-12-27T11:29:41.300Z</time>
      </trkpt>
      <trkpt lat="45.677061" lon="10.204930">
        <ele>934.947583</ele>
        <time>2023-12-27T11:30:28.496Z</time>
      </trkpt>
      <trkpt lat="45.677076" lon="10.204859">
        <ele>935.817769</ele>
        <time>2023-12-27T11:30:34.000Z</time>
      </trkpt>
      <trkpt lat="45.677119" lon="10.204812">
        <ele>936.726227</ele>
        <time>2023-12-27T11:30:39.971Z</time>
      </trkpt>
      <trkpt lat="45.677250" lon="10.204727">
        <ele>939.141268</ele>
        <time>2023-12-27T11:30:56.896Z</time>
      </trkpt>
      <trkpt lat="45.677514" lon="10.204491">
        <ele>946.055901</ele>
        <time>2023-12-27T11:31:34.170Z</time>
      </trkpt>
      <trkpt lat="45.677627" lon="10.204457">
        <ele>949.072480</ele>
        <time>2023-12-27T11:31:49.332Z</time>
      </trkpt>
      <trkpt lat="45.677809" lon="10.204544">
        <ele>954.085288</ele>
        <time>2023-12-27T11:32:14.966Z</time>
      </trkpt>
      <trkpt lat="45.678103" lon="10.204816">
        <ele>963.230771</ele>
        <time>2023-12-27T11:33:01.795Z</time>
      </trkpt>
      <trkpt lat="45.678298" lon="10.204883">
        <ele>968.469751</ele>
        <time>2023-12-27T11:33:28.920Z</time>
      </trkpt>
      <trkpt lat="45.678422" lon="10.204941">
        <ele>971.877768</ele>
        <time>2023-12-27T11:33:46.436Z</time>
      </trkpt>
      <trkpt lat="45.678627" lon="10.205232">
        <ele>979.420545</ele>
        <time>2023-12-27T11:34:25.646Z</time>
      </trkpt>
      <trkpt lat="45.678684" lon="10.205391">
        <ele>982.682436</ele>
        <time>2023-12-27T11:34:42.416Z</time>
      </trkpt>
      <trkpt lat="45.678817" lon="10.205841">
        <ele>990.742734</ele>
        <time>2023-12-27T11:35:28.478Z</time>
      </trkpt>
      <trkpt lat="45.678945" lon="10.206174">
        <ele>995.866311</ele>
        <time>2023-12-27T11:36:04.035Z</time>
      </trkpt>
      <trkpt lat="45.679040" lon="10.206350">
        <ele>998.864476</ele>
        <time>2023-12-27T11:36:24.722Z</time>
      </trkpt>
      <trkpt lat="45.679082" lon="10.206446">
        <ele>1000.391399</ele>
        <time>2023-12-27T11:36:35.308Z</time>
      </trkpt>
      <trkpt lat="45.679197" lon="10.206549">
        <ele>1003.008898</ele>
        <time>2023-12-27T11:36:52.880Z</time>
      </trkpt>
      <trkpt lat="45.679479" lon="10.206719">
        <ele>1008.912867</ele>
        <time>2023-12-27T11:37:30.419Z</time>
      </trkpt>
      <trkpt lat="45.679670" lon="10.207007">
        <ele>1014.265804</ele>
        <time>2023-12-27T11:37:59.519Z</time>
      </trkpt>
      <trkpt lat="45.679931" lon="10.207245">
        <ele>1020.236849</ele>
        <time>2023-12-27T11:38:25.244Z</time>
      </trkpt>
      <trkpt lat="45.680090" lon="10.207296">
        <ele>1023.028599</ele>
        <time>2023-12-27T11:38:36.522Z</time>
      </trkpt>
      <trkpt lat="45.680380" lon="10.207522">
        <ele>1023.133787</ele>
        <time>2023-12-27T11:38:53.251Z</time>
      </trkpt>
      <trkpt lat="45.680637" lon="10.207955">
        <ele>1023.260237</ele>
        <time>2023-12-27T11:39:04.402Z</time>
      </trkpt>
      <trkpt lat="45.680821" lon="10.208186">
        <ele>1023.338204</ele>
        <time>2023-12-27T11:39:08.774Z</time>
      </trkpt>
      <trkpt lat="45.681397" lon="10.208443">
        <ele>1023.530401</ele>
        <time>2023-12-27T11:39:17.224Z</time>
      </trkpt>
      <trkpt lat="45.681531" lon="10.208573">
        <ele>1023.581969</ele>
        <time>2023-12-27T11:39:19.231Z</time>
      </trkpt>
      <trkpt lat="45.681606" lon="10.208937">
        <ele>1022.746947</ele>
        <time>2023-12-27T11:39:22.566Z</time>
      </trkpt>
      <trkpt lat="45.681646" lon="10.208968">
        <ele>1022.573177</ele>
        <time>2023-12-27T11:39:23.129Z</time>
      </trkpt>
      <trkpt lat="45.681655" lon="10.208974">
        <ele>1022.535249</ele>
        <time>2023-12-27T11:39:23.262Z</time>
      </trkpt>
      <trkpt lat="45.681650" lon="10.208844">
        <ele>1022.187759</ele>
        <time>2023-12-27T11:39:25.300Z</time>
      </trkpt>
      <trkpt lat="45.681655" lon="10.208974">
        <ele>1021.840268</ele>
        <time>2023-12-27T11:39:27.470Z</time>
      </trkpt>
      <trkpt lat="45.681646" lon="10.208968">
        <ele>1021.802340</ele>
        <time>2023-12-27T11:39:27.618Z</time>
      </trkpt>
      <trkpt lat="45.681606" lon="10.208937">
        <ele>1021.628570</ele>
        <time>2023-12-27T11:39:28.245Z</time>
      </trkpt>
      <trkpt lat="45.681828" lon="10.209508">
        <ele>1019.884509</ele>
        <time>2023-12-27T11:39:34.353Z</time>
      </trkpt>
      <trkpt lat="45.681904" lon="10.209626">
        <ele>1019.456164</ele>
        <time>2023-12-27T11:39:35.921Z</time>
      </trkpt>
      <trkpt lat="45.682014" lon="10.209862">
        <ele>1018.698982</ele>
        <time>2023-12-27T11:39:39.555Z</time>
      </trkpt>
      <trkpt lat="45.682117" lon="10.210329">
        <ele>1017.391951</ele>
        <time>2023-12-27T11:39:45.963Z</time>
      </trkpt>
      <trkpt lat="45.682306" lon="10.210386">
        <ele>1016.726477</ele>
        <time>2023-12-27T11:39:49.365Z</time>
      </trkpt>
      <trkpt lat="45.682524" lon="10.210479">
        <ele>1016.751127</ele>
        <time>2023-12-27T11:39:53.856Z</time>
      </trkpt>
      <trkpt lat="45.682707" lon="10.210610">
        <ele>1016.773299</ele>
        <time>2023-12-27T11:39:57.597Z</time>
      </trkpt>
      <trkpt lat="45.682985" lon="10.210989">
        <ele>1016.814902</ele>
        <time>2023-12-27T11:40:03.413Z</time>
      </trkpt>
      <trkpt lat="45.683150" lon="10.211133">
        <ele>1016.835843</ele>
        <time>2023-12-27T11:40:06.718Z</time>
      </trkpt>
      <trkpt lat="45.683273" lon="10.211297">
        <ele>1016.854058</ele>
        <time>2023-12-27T11:40:10.969Z</time>
      </trkpt>
      <trkpt lat="45.683278" lon="10.211353">
        <ele>1016.858332</ele>
        <time>2023-12-27T11:40:12.038Z</time>
      </trkpt>
      <trkpt lat="45.683265" lon="10.211457">
        <ele>1016.866331</ele>
        <time>2023-12-27T11:40:14.965Z</time>
      </trkpt>
      <trkpt lat="45.682953" lon="10.211954">
        <ele>1016.916915</ele>
        <time>2023-12-27T11:40:32.770Z</time>
      </trkpt>
      <trkpt lat="45.682862" lon="10.212186">
        <ele>1017.339548</ele>
        <time>2023-12-27T11:40:37.622Z</time>
      </trkpt>
      <trkpt lat="45.682802" lon="10.212424">
        <ele>1017.795005</ele>
        <time>2023-12-27T11:40:42.505Z</time>
      </trkpt>
      <trkpt lat="45.682770" lon="10.212697">
        <ele>1018.293294</ele>
        <time>2023-12-27T11:40:45.857Z</time>
      </trkpt>
      <trkpt lat="45.682752" lon="10.213079">
        <ele>1018.982485</ele>
        <time>2023-12-27T11:40:50.663Z</time>
      </trkpt>
      <trkpt lat="45.682840" lon="10.213397">
        <ele>1019.598179</ele>
        <time>2023-12-27T11:40:55.617Z</time>
      </trkpt>
      <trkpt lat="45.682799" lon="10.213532">
        <ele>1019.863157</ele>
        <time>2023-12-27T11:40:57.587Z</time>
      </trkpt>
      <trkpt lat="45.682382" lon="10.214780">
        <ele>1024.798844</ele>
        <time>2023-12-27T11:41:41.910Z</time>
      </trkpt>
      <trkpt lat="45.682371" lon="10.215045">
        <ele>1026.738115</ele>
        <time>2023-12-27T11:41:54.107Z</time>
      </trkpt>
      <trkpt lat="45.682462" lon="10.215561">
        <ele>1030.625797</ele>
        <time>2023-12-27T11:42:20.437Z</time>
      </trkpt>
      <trkpt lat="45.682543" lon="10.216459">
        <ele>1037.240230</ele>
        <time>2023-12-27T11:43:11.047Z</time>
      </trkpt>
      <trkpt lat="45.682447" lon="10.216961">
        <ele>1041.292245</ele>
        <time>2023-12-27T11:43:45.621Z</time>
      </trkpt>
      <trkpt lat="45.682331" lon="10.217386">
        <ele>1045.848001</ele>
        <time>2023-12-27T11:44:17.647Z</time>
      </trkpt>
      <trkpt lat="45.682227" lon="10.217619">
        <ele>1048.608658</ele>
        <time>2023-12-27T11:44:36.906Z</time>
      </trkpt>
      <trkpt lat="45.682067" lon="10.218152">
        <ele>1054.400884</ele>
        <time>2023-12-27T11:45:17.042Z</time>
      </trkpt>
      <trkpt lat="45.682003" lon="10.218579">
        <ele>1058.761305</ele>
        <time>2023-12-27T11:45:45.374Z</time>
      </trkpt>
      <trkpt lat="45.681940" lon="10.218723">
        <ele>1060.457731</ele>
        <time>2023-12-27T11:45:56.177Z</time>
      </trkpt>
      <trkpt lat="45.681744" lon="10.219367">
        <ele>1066.592084</ele>
        <time>2023-12-27T11:46:37.396Z</time>
      </trkpt>
      <trkpt lat="45.681699" lon="10.219638">
        <ele>1067.633080</ele>
        <time>2023-12-27T11:46:52.459Z</time>
      </trkpt>
      <trkpt lat="45.681726" lon="10.220150">
        <ele>1069.551975</ele>
        <time>2023-12-27T11:47:15.260Z</time>
      </trkpt>
      <trkpt lat="45.681636" lon="10.220501">
        <ele>1070.949291</ele>
        <time>2023-12-27T11:47:25.128Z</time>
      </trkpt>
      <trkpt lat="45.681622" lon="10.220651">
        <ele>1071.514853</ele>
        <time>2023-12-27T11:47:28.418Z</time>
      </trkpt>
      <trkpt lat="45.681650" lon="10.221112">
        <ele>1073.244208</ele>
        <time>2023-12-27T11:47:36.952Z</time>
      </trkpt>
      <trkpt lat="45.681532" lon="10.221497">
        <ele>1074.815403</ele>
        <time>2023-12-27T11:47:45.219Z</time>
      </trkpt>
      <trkpt lat="45.681515" lon="10.221758">
        <ele>1075.674830</ele>
        <time>2023-12-27T11:47:50.393Z</time>
      </trkpt>
      <trkpt lat="45.681510" lon="10.221810">
        <ele>1075.651905</ele>
        <time>2023-12-27T11:47:51.312Z</time>
      </trkpt>
      <trkpt lat="45.681467" lon="10.222072">
        <ele>1075.534358</ele>
        <time>2023-12-27T11:47:56.990Z</time>
      </trkpt>
      <trkpt lat="45.681420" lon="10.222307">
        <ele>1075.427596</ele>
        <time>2023-12-27T11:48:00.188Z</time>
      </trkpt>
      <trkpt lat="45.681419" lon="10.222350">
        <ele>1075.408805</ele>
        <time>2023-12-27T11:48:00.756Z</time>
      </trkpt>
      <trkpt lat="45.681417" lon="10.222525">
        <ele>1075.332362</ele>
        <time>2023-12-27T11:48:03.306Z</time>
      </trkpt>
      <trkpt lat="45.681480" lon="10.222687">
        <ele>1075.251383</ele>
        <time>2023-12-27T11:48:05.621Z</time>
      </trkpt>
      <trkpt lat="45.681545" lon="10.222761">
        <ele>1075.199462</ele>
        <time>2023-12-27T11:48:07.018Z</time>
      </trkpt>
      <trkpt lat="45.681658" lon="10.222828">
        <ele>1075.122999</ele>
        <time>2023-12-27T11:48:09.026Z</time>
      </trkpt>
      <trkpt lat="45.681854" lon="10.222867">
        <ele>1074.999290</ele>
        <time>2023-12-27T11:48:12.215Z</time>
      </trkpt>
      <trkpt lat="45.681977" lon="10.222871">
        <ele>1074.922377</ele>
        <time>2023-12-27T11:48:13.924Z</time>
      </trkpt>
      <trkpt lat="45.682091" lon="10.222835">
        <ele>1074.849395</ele>
        <time>2023-12-27T11:48:15.692Z</time>
      </trkpt>
      <trkpt lat="45.682228" lon="10.222845">
        <ele>1074.763638</ele>
        <time>2023-12-27T11:48:17.688Z</time>
      </trkpt>
      <trkpt lat="45.682347" lon="10.222943">
        <ele>1074.677810</ele>
        <time>2023-12-27T11:48:19.757Z</time>
      </trkpt>
      <trkpt lat="45.682422" lon="10.222998">
        <ele>1074.625129</ele>
        <time>2023-12-27T11:48:22.477Z</time>
      </trkpt>
      <trkpt lat="45.682553" lon="10.223123">
        <ele>1074.653900</ele>
        <time>2023-12-27T11:48:26.985Z</time>
      </trkpt>
      <trkpt lat="45.682592" lon="10.223292">
        <ele>1074.848716</ele>
        <time>2023-12-27T11:48:29.588Z</time>
      </trkpt>
      <trkpt lat="45.682715" lon="10.223496">
        <ele>1075.143673</ele>
        <time>2023-12-27T11:48:37.229Z</time>
      </trkpt>
      <trkpt lat="45.682740" lon="10.223553">
        <ele>1075.217341</ele>
        <time>2023-12-27T11:48:39.119Z</time>
      </trkpt>
      <trkpt lat="45.682755" lon="10.223611">
        <ele>1075.285037</ele>
        <time>2023-12-27T11:48:40.884Z</time>
      </trkpt>
      <trkpt lat="45.682768" lon="10.223679">
        <ele>1075.362206</ele>
        <time>2023-12-27T11:48:43.051Z</time>
      </trkpt>
      <trkpt lat="45.682777" lon="10.223762">
        <ele>1075.454144</ele>
        <time>2023-12-27T11:48:47.018Z</time>
      </trkpt>
      <trkpt lat="45.682803" lon="10.224007">
        <ele>1075.725395</ele>
        <time>2023-12-27T11:48:56.871Z</time>
      </trkpt>
      <trkpt lat="45.682777" lon="10.224328">
        <ele>1076.079111</ele>
        <time>2023-12-27T11:49:04.566Z</time>
      </trkpt>
      <trkpt lat="45.682958" lon="10.224643">
        <ele>1076.525546</ele>
        <time>2023-12-27T11:49:10.130Z</time>
      </trkpt>
      <trkpt lat="45.683135" lon="10.224907">
        <ele>1076.926056</ele>
        <time>2023-12-27T11:49:17.979Z</time>
      </trkpt>
      <trkpt lat="45.683162" lon="10.225029">
        <ele>1077.066135</ele>
        <time>2023-12-27T11:49:21.403Z</time>
      </trkpt>
      <trkpt lat="45.683140" lon="10.225167">
        <ele>1077.221070</ele>
        <time>2023-12-27T11:49:25.981Z</time>
      </trkpt>
      <trkpt lat="45.683087" lon="10.225259">
        <ele>1077.351593</ele>
        <time>2023-12-27T11:49:28.768Z</time>
      </trkpt>
      <trkpt lat="45.683033" lon="10.225354">
        <ele>1077.165558</ele>
        <time>2023-12-27T11:49:32.330Z</time>
      </trkpt>
      <trkpt lat="45.683021" lon="10.225454">
        <ele>1076.936815</ele>
        <time>2023-12-27T11:49:34.829Z</time>
      </trkpt>
      <trkpt lat="45.683023" lon="10.225568">
        <ele>1076.679730</ele>
        <time>2023-12-27T11:49:36.894Z</time>
      </trkpt>
      <trkpt lat="45.682980" lon="10.225797">
        <ele>1076.145145</ele>
        <time>2023-12-27T11:49:39.672Z</time>
      </trkpt>
      <trkpt lat="45.682885" lon="10.225896">
        <ele>1075.765948</ele>
        <time>2023-12-27T11:49:42.978Z</time>
      </trkpt>
      <trkpt lat="45.682785" lon="10.225983">
        <ele>1075.388325</ele>
        <time>2023-12-27T11:49:45.106Z</time>
      </trkpt>
      <trkpt lat="45.682664" lon="10.226039">
        <ele>1074.977964</ele>
        <time>2023-12-27T11:49:48.165Z</time>
      </trkpt>
      <trkpt lat="45.682543" lon="10.226337">
        <ele>1074.200916</ele>
        <time>2023-12-27T11:49:52.569Z</time>
      </trkpt>
      <trkpt lat="45.682564" lon="10.226602">
        <ele>1073.599659</ele>
        <time>2023-12-27T11:49:55.996Z</time>
      </trkpt>
      <trkpt lat="45.682525" lon="10.226839">
        <ele>1073.050736</ele>
        <time>2023-12-27T11:49:58.735Z</time>
      </trkpt>
      <trkpt lat="45.682515" lon="10.227152">
        <ele>1072.344359</ele>
        <time>2023-12-27T11:50:01.935Z</time>
      </trkpt>
      <trkpt lat="45.682469" lon="10.227284">
        <ele>1072.011806</ele>
        <time>2023-12-27T11:50:03.316Z</time>
      </trkpt>
      <trkpt lat="45.682387" lon="10.227417">
        <ele>1071.611903</ele>
        <time>2023-12-27T11:50:04.797Z</time>
      </trkpt>
      <trkpt lat="45.682281" lon="10.227657">
        <ele>1069.089626</ele>
        <time>2023-12-27T11:50:07.454Z</time>
      </trkpt>
      <trkpt lat="45.682275" lon="10.227770">
        <ele>1068.039524</ele>
        <time>2023-12-27T11:50:08.455Z</time>
      </trkpt>
      <trkpt lat="45.682325" lon="10.227856">
        <ele>1067.002786</ele>
        <time>2023-12-27T11:50:09.551Z</time>
      </trkpt>
      <trkpt lat="45.682393" lon="10.227939">
        <ele>1065.817487</ele>
        <time>2023-12-27T11:50:10.824Z</time>
      </trkpt>
      <trkpt lat="45.682385" lon="10.228245">
        <ele>1062.980048</ele>
        <time>2023-12-27T11:50:13.575Z</time>
      </trkpt>
      <trkpt lat="45.682398" lon="10.228328">
        <ele>1062.191863</ele>
        <time>2023-12-27T11:50:14.555Z</time>
      </trkpt>
      <trkpt lat="45.682442" lon="10.228408">
        <ele>1061.248418</ele>
        <time>2023-12-27T11:50:15.608Z</time>
      </trkpt>
      <trkpt lat="45.682499" lon="10.228460">
        <ele>1060.351915</ele>
        <time>2023-12-27T11:50:16.464Z</time>
      </trkpt>
      <trkpt lat="45.682536" lon="10.228483">
        <ele>1059.816894</ele>
        <time>2023-12-27T11:50:17.252Z</time>
      </trkpt>
      <trkpt lat="45.682692" lon="10.228592">
        <ele>1057.514465</ele>
        <time>2023-12-27T11:50:20.865Z</time>
      </trkpt>
      <trkpt lat="45.682740" lon="10.228720">
        <ele>1056.168338</ele>
        <time>2023-12-27T11:50:23.094Z</time>
      </trkpt>
      <trkpt lat="45.682542" lon="10.228806">
        <ele>1053.423965</ele>
        <time>2023-12-27T11:50:27.145Z</time>
      </trkpt>
      <trkpt lat="45.682510" lon="10.228795">
        <ele>1052.987473</ele>
        <time>2023-12-27T11:50:29.491Z</time>
      </trkpt>
      <trkpt lat="45.682351" lon="10.228745">
        <ele>1050.828318</ele>
        <time>2023-12-27T11:50:32.826Z</time>
      </trkpt>
      <trkpt lat="45.682231" lon="10.228637">
        <ele>1048.948246</ele>
        <time>2023-12-27T11:50:35.594Z</time>
      </trkpt>
      <trkpt lat="45.682216" lon="10.228603">
        <ele>1048.575636</ele>
        <time>2023-12-27T11:50:36.222Z</time>
      </trkpt>
      <trkpt lat="45.682228" lon="10.228526">
        <ele>1047.844601</ele>
        <time>2023-12-27T11:50:37.706Z</time>
      </trkpt>
      <trkpt lat="45.682176" lon="10.228466">
        <ele>1046.324120</ele>
        <time>2023-12-27T11:50:39.123Z</time>
      </trkpt>
      <trkpt lat="45.682083" lon="10.228477">
        <ele>1044.056096</ele>
        <time>2023-12-27T11:50:40.943Z</time>
      </trkpt>
      <trkpt lat="45.682037" lon="10.228469">
        <ele>1042.929866</ele>
        <time>2023-12-27T11:50:41.835Z</time>
      </trkpt>
      <trkpt lat="45.682009" lon="10.228660">
        <ele>1039.616037</ele>
        <time>2023-12-27T11:50:44.542Z</time>
      </trkpt>
      <trkpt lat="45.682039" lon="10.228711">
        <ele>1038.483973</ele>
        <time>2023-12-27T11:50:45.552Z</time>
      </trkpt>
      <trkpt lat="45.681954" lon="10.228698">
        <ele>1036.406329</ele>
        <time>2023-12-27T11:50:47.226Z</time>
      </trkpt>
      <trkpt lat="45.681954" lon="10.228760">
        <ele>1035.353561</ele>
        <time>2023-12-27T11:50:48.077Z</time>
      </trkpt>
      <trkpt lat="45.681984" lon="10.228820">
        <ele>1034.100722</ele>
        <time>2023-12-27T11:50:49.072Z</time>
      </trkpt>
      <trkpt lat="45.682007" lon="10.228855">
        <ele>1033.284828</ele>
        <time>2023-12-27T11:50:49.719Z</time>
      </trkpt>
      <trkpt lat="45.681997" lon="10.228876">
        <ele>1032.853294</ele>
        <time>2023-12-27T11:50:50.060Z</time>
      </trkpt>
      <trkpt lat="45.682095" lon="10.229023">
        <ele>1029.403140</ele>
        <time>2023-12-27T11:50:52.898Z</time>
      </trkpt>
      <trkpt lat="45.682288" lon="10.229266">
        <ele>1023.155863</ele>
        <time>2023-12-27T11:50:57.980Z</time>
      </trkpt>
      <trkpt lat="45.682443" lon="10.229370">
        <ele>1018.995301</ele>
        <time>2023-12-27T11:51:01.295Z</time>
      </trkpt>
      <trkpt lat="45.682480" lon="10.229459">
        <ele>1017.236762</ele>
        <time>2023-12-27T11:51:02.722Z</time>
      </trkpt>
      <trkpt lat="45.682594" lon="10.229577">
        <ele>1013.817492</ele>
        <time>2023-12-27T11:51:05.464Z</time>
      </trkpt>
      <trkpt lat="45.682652" lon="10.229596">
        <ele>1012.371384</ele>
        <time>2023-12-27T11:51:06.667Z</time>
      </trkpt>
      <trkpt lat="45.682616" lon="10.229679">
        <ele>1010.712535</ele>
        <time>2023-12-27T11:51:08.006Z</time>
      </trkpt>
      <trkpt lat="45.682430" lon="10.229774">
        <ele>1005.912715</ele>
        <time>2023-12-27T11:51:11.891Z</time>
      </trkpt>
      <trkpt lat="45.682229" lon="10.229860">
        <ele>1000.013394</ele>
        <time>2023-12-27T11:51:15.979Z</time>
      </trkpt>
      <trkpt lat="45.681781" lon="10.229849">
        <ele>986.392197</ele>
        <time>2023-12-27T11:51:24.749Z</time>
      </trkpt>
      <trkpt lat="45.681748" lon="10.229878">
        <ele>985.215010</ele>
        <time>2023-12-27T11:51:25.495Z</time>
      </trkpt>
      <trkpt lat="45.681703" lon="10.229918">
        <ele>983.604681</ele>
        <time>2023-12-27T11:51:26.547Z</time>
      </trkpt>
      <trkpt lat="45.681019" lon="10.229547">
        <ele>961.368182</ele>
        <time>2023-12-27T11:51:40.984Z</time>
      </trkpt>
      <trkpt lat="45.681053" lon="10.229692">
        <ele>958.119703</ele>
        <time>2023-12-27T11:51:43.094Z</time>
      </trkpt>
      <trkpt lat="45.680719" lon="10.229550">
        <ele>947.659632</ele>
        <time>2023-12-27T11:51:49.959Z</time>
      </trkpt>
      <trkpt lat="45.680581" lon="10.229440">
        <ele>943.209920</ele>
        <time>2023-12-27T11:51:53.043Z</time>
      </trkpt>
      <trkpt lat="45.680469" lon="10.229240">
        <ele>938.165205</ele>
        <time>2023-12-27T11:51:56.558Z</time>
      </trkpt>
      <trkpt lat="45.680438" lon="10.229574">
        <ele>931.533807</ele>
        <time>2023-12-27T11:52:01.151Z</time>
      </trkpt>
      <trkpt lat="45.680458" lon="10.229657">
        <ele>929.805808</ele>
        <time>2023-12-27T11:52:02.353Z</time>
      </trkpt>
      <trkpt lat="45.680426" lon="10.229659">
        <ele>928.903493</ele>
        <time>2023-12-27T11:52:02.976Z</time>
      </trkpt>
      <trkpt lat="45.680366" lon="10.229618">
        <ele>927.030518</ele>
        <time>2023-12-27T11:52:04.280Z</time>
      </trkpt>
      <trkpt lat="45.680176" lon="10.229303">
        <ele>918.840002</ele>
        <time>2023-12-27T11:52:09.956Z</time>
      </trkpt>
      <trkpt lat="45.680149" lon="10.229313">
        <ele>918.054347</ele>
        <time>2023-12-27T11:52:10.495Z</time>
      </trkpt>
      <trkpt lat="45.680165" lon="10.229383">
        <ele>916.604774</ele>
        <time>2023-12-27T11:52:11.508Z</time>
      </trkpt>
      <trkpt lat="45.680133" lon="10.229424">
        <ele>915.394903</ele>
        <time>2023-12-27T11:52:12.350Z</time>
      </trkpt>
      <trkpt lat="45.679918" lon="10.229178">
        <ele>907.640863</ele>
        <time>2023-12-27T11:52:17.718Z</time>
      </trkpt>
      <trkpt lat="45.679837" lon="10.229008">
        <ele>903.590960</ele>
        <time>2023-12-27T11:52:20.518Z</time>
      </trkpt>
      <trkpt lat="45.679828" lon="10.228915">
        <ele>901.743078</ele>
        <time>2023-12-27T11:52:21.806Z</time>
      </trkpt>
      <trkpt lat="45.679753" lon="10.229127">
        <ele>897.441095</ele>
        <time>2023-12-27T11:52:25.040Z</time>
      </trkpt>
      <trkpt lat="45.679734" lon="10.229266">
        <ele>895.309889</ele>
        <time>2023-12-27T11:52:26.956Z</time>
      </trkpt>
      <trkpt lat="45.679805" lon="10.229800">
        <ele>887.130514</ele>
        <time>2023-12-27T11:52:34.332Z</time>
      </trkpt>
      <trkpt lat="45.679800" lon="10.230027">
        <ele>883.713119</ele>
        <time>2023-12-27T11:52:37.406Z</time>
      </trkpt>
      <trkpt lat="45.679790" lon="10.230058">
        <ele>883.199340</ele>
        <time>2023-12-27T11:52:37.869Z</time>
      </trkpt>
      <trkpt lat="45.679770" lon="10.230036">
        <ele>882.656090</ele>
        <time>2023-12-27T11:52:38.356Z</time>
      </trkpt>
      <trkpt lat="45.679699" lon="10.229904">
        <ele>880.149441</ele>
        <time>2023-12-27T11:52:40.614Z</time>
      </trkpt>
      <trkpt lat="45.679682" lon="10.230068">
        <ele>877.654695</ele>
        <time>2023-12-27T11:52:42.873Z</time>
      </trkpt>
      <trkpt lat="45.679322" lon="10.229652">
        <ele>867.689935</ele>
        <time>2023-12-27T11:52:52.077Z</time>
      </trkpt>
      <trkpt lat="45.679120" lon="10.229154">
        <ele>859.044569</ele>
        <time>2023-12-27T11:53:00.062Z</time>
      </trkpt>
      <trkpt lat="45.679016" lon="10.228384">
        <ele>847.500203</ele>
        <time>2023-12-27T11:53:10.825Z</time>
      </trkpt>
      <trkpt lat="45.679181" lon="10.227961">
        <ele>840.368889</ele>
        <time>2023-12-27T11:53:27.000Z</time>
      </trkpt>
      <trkpt lat="45.679180" lon="10.227916">
        <ele>839.706149</ele>
        <time>2023-12-27T11:53:28.482Z</time>
      </trkpt>
      <trkpt lat="45.679088" lon="10.227763">
        <ele>836.734722</ele>
        <time>2023-12-27T11:53:35.236Z</time>
      </trkpt>
      <trkpt lat="45.679026" lon="10.227692">
        <ele>835.061821</ele>
        <time>2023-12-27T11:53:39.043Z</time>
      </trkpt>
      <trkpt lat="45.678967" lon="10.227687">
        <ele>833.816595</ele>
        <time>2023-12-27T11:53:41.885Z</time>
      </trkpt>
      <trkpt lat="45.678943" lon="10.227569">
        <ele>832.007511</ele>
        <time>2023-12-27T11:53:46.026Z</time>
      </trkpt>
      <trkpt lat="45.678814" lon="10.227405">
        <ele>828.372313</ele>
        <time>2023-12-27T11:53:54.253Z</time>
      </trkpt>
      <trkpt lat="45.678721" lon="10.227287">
        <ele>825.753859</ele>
        <time>2023-12-27T11:53:56.674Z</time>
      </trkpt>
      <trkpt lat="45.678424" lon="10.227258">
        <ele>818.858926</ele>
        <time>2023-12-27T11:54:02.450Z</time>
      </trkpt>
      <trkpt lat="45.677886" lon="10.227609">
        <ele>803.351855</ele>
        <time>2023-12-27T11:54:13.917Z</time>
      </trkpt>
      <trkpt lat="45.677813" lon="10.227565">
        <ele>801.274416</ele>
        <time>2023-12-27T11:54:17.713Z</time>
      </trkpt>
      <trkpt lat="45.677702" lon="10.227127">
        <ele>792.736500</ele>
        <time>2023-12-27T11:54:33.421Z</time>
      </trkpt>
      <trkpt lat="45.677707" lon="10.226878">
        <ele>788.171740</ele>
        <time>2023-12-27T11:54:41.778Z</time>
      </trkpt>
      <trkpt lat="45.677616" lon="10.226600">
        <ele>782.546073</ele>
        <time>2023-12-27T11:54:52.164Z</time>
      </trkpt>
      <trkpt lat="45.677491" lon="10.226414">
        <ele>777.816879</ele>
        <time>2023-12-27T11:55:00.819Z</time>
      </trkpt>
      <trkpt lat="45.677423" lon="10.226199">
        <ele>773.501753</ele>
        <time>2023-12-27T11:55:08.793Z</time>
      </trkpt>
      <trkpt lat="45.677397" lon="10.226034">
        <ele>770.424037</ele>
        <time>2023-12-27T11:55:11.084Z</time>
      </trkpt>
      <trkpt lat="45.677315" lon="10.225919">
        <ele>767.434231</ele>
        <time>2023-12-27T11:55:13.323Z</time>
      </trkpt>
      <trkpt lat="45.677199" lon="10.225720">
        <ele>762.718565</ele>
        <time>2023-12-27T11:55:16.848Z</time>
      </trkpt>
      <trkpt lat="45.677099" lon="10.225713">
        <ele>760.111203</ele>
        <time>2023-12-27T11:55:18.789Z</time>
      </trkpt>
      <trkpt lat="45.677062" lon="10.225782">
        <ele>758.528547</ele>
        <time>2023-12-27T11:55:19.973Z</time>
      </trkpt>
      <trkpt lat="45.677045" lon="10.225997">
        <ele>754.591449</ele>
        <time>2023-12-27T11:55:22.909Z</time>
      </trkpt>
      <trkpt lat="45.676879" lon="10.225818">
        <ele>749.178746</ele>
        <time>2023-12-27T11:55:26.945Z</time>
      </trkpt>
      <trkpt lat="45.676783" lon="10.225768">
        <ele>746.518270</ele>
        <time>2023-12-27T11:55:31.899Z</time>
      </trkpt>
      <trkpt lat="45.676654" lon="10.225541">
        <ele>741.194064</ele>
        <time>2023-12-27T11:55:35.877Z</time>
      </trkpt>
      <trkpt lat="45.676571" lon="10.225481">
        <ele>738.772464</ele>
        <time>2023-12-27T11:55:37.709Z</time>
      </trkpt>
      <trkpt lat="45.676457" lon="10.225528">
        <ele>735.682895</ele>
        <time>2023-12-27T11:55:40.046Z</time>
      </trkpt>
      <trkpt lat="45.676264" lon="10.225371">
        <ele>729.901547</ele>
        <time>2023-12-27T11:55:44.351Z</time>
      </trkpt>
      <trkpt lat="45.676139" lon="10.225401">
        <ele>727.053669</ele>
        <time>2023-12-27T11:55:46.810Z</time>
      </trkpt>
      <trkpt lat="45.676051" lon="10.225317">
        <ele>725.183126</ele>
        <time>2023-12-27T11:55:48.891Z</time>
      </trkpt>
      <trkpt lat="45.676011" lon="10.225179">
        <ele>723.337104</ele>
        <time>2023-12-27T11:55:50.948Z</time>
      </trkpt>
      <trkpt lat="45.675782" lon="10.224824">
        <ele>717.367214</ele>
        <time>2023-12-27T11:55:57.612Z</time>
      </trkpt>
      <trkpt lat="45.675328" lon="10.224874">
        <ele>709.315010</ele>
        <time>2023-12-27T11:56:06.623Z</time>
      </trkpt>
      <trkpt lat="45.675199" lon="10.224851">
        <ele>707.016159</ele>
        <time>2023-12-27T11:56:09.196Z</time>
      </trkpt>
      <trkpt lat="45.675147" lon="10.224755">
        <ele>705.515279</ele>
        <time>2023-12-27T11:56:13.635Z</time>
      </trkpt>
      <trkpt lat="45.675122" lon="10.224595">
        <ele>703.489465</ele>
        <time>2023-12-27T11:56:19.586Z</time>
      </trkpt>
      <trkpt lat="45.675107" lon="10.224175">
        <ele>698.293099</ele>
        <time>2023-12-27T11:56:25.739Z</time>
      </trkpt>
      <trkpt lat="45.675031" lon="10.224018">
        <ele>695.964308</ele>
        <time>2023-12-27T11:56:28.474Z</time>
      </trkpt>
      <trkpt lat="45.674931" lon="10.223968">
        <ele>694.306155</ele>
        <time>2023-12-27T11:56:30.585Z</time>
      </trkpt>
      <trkpt lat="45.674643" lon="10.224003">
        <ele>689.781659</ele>
        <time>2023-12-27T11:56:36.412Z</time>
      </trkpt>
      <trkpt lat="45.674469" lon="10.223982">
        <ele>687.048244</ele>
        <time>2023-12-27T11:56:39.905Z</time>
      </trkpt>
      <trkpt lat="45.674305" lon="10.223916">
        <ele>684.381467</ele>
        <time>2023-12-27T11:56:43.449Z</time>
      </trkpt>
      <trkpt lat="45.674111" lon="10.223905">
        <ele>681.342262</ele>
        <time>2023-12-27T11:56:47.447Z</time>
      </trkpt>
      <trkpt lat="45.674028" lon="10.223836">
        <ele>679.839710</ele>
        <time>2023-12-27T11:56:49.519Z</time>
      </trkpt>
      <trkpt lat="45.673922" lon="10.223631">
        <ele>677.050262</ele>
        <time>2023-12-27T11:56:58.671Z</time>
      </trkpt>
      <trkpt lat="45.673744" lon="10.223734">
        <ele>674.044759</ele>
        <time>2023-12-27T11:57:08.192Z</time>
      </trkpt>
      <trkpt lat="45.673379" lon="10.223985">
        <ele>667.539891</ele>
        <time>2023-12-27T11:57:16.103Z</time>
      </trkpt>
      <trkpt lat="45.673342" lon="10.223986">
        <ele>666.680957</ele>
        <time>2023-12-27T11:57:16.832Z</time>
      </trkpt>
      <trkpt lat="45.673202" lon="10.224007">
        <ele>663.413715</ele>
        <time>2023-12-27T11:57:19.567Z</time>
      </trkpt>
      <trkpt lat="45.673128" lon="10.224016">
        <ele>661.689962</ele>
        <time>2023-12-27T11:57:23.145Z</time>
      </trkpt>
      <trkpt lat="45.673096" lon="10.223896">
        <ele>659.606866</ele>
        <time>2023-12-27T11:57:27.633Z</time>
      </trkpt>
      <trkpt lat="45.672926" lon="10.223865">
        <ele>655.629213</ele>
        <time>2023-12-27T11:57:35.897Z</time>
      </trkpt>
      <trkpt lat="45.672951" lon="10.223756">
        <ele>653.768626</ele>
        <time>2023-12-27T11:57:39.723Z</time>
      </trkpt>
      <trkpt lat="45.672666" lon="10.223813">
        <ele>647.089408</ele>
        <time>2023-12-27T11:57:53.587Z</time>
      </trkpt>
      <trkpt lat="45.672577" lon="10.223730">
        <ele>644.623797</ele>
        <time>2023-12-27T11:57:58.657Z</time>
      </trkpt>
      <trkpt lat="45.672507" lon="10.223756">
        <ele>642.945247</ele>
        <time>2023-12-27T11:58:02.119Z</time>
      </trkpt>
      <trkpt lat="45.672392" lon="10.223736">
        <ele>640.256426</ele>
        <time>2023-12-27T11:58:07.653Z</time>
      </trkpt>
      <trkpt lat="45.672319" lon="10.223715">
        <ele>638.528182</ele>
        <time>2023-12-27T11:58:09.119Z</time>
      </trkpt>
      <trkpt lat="45.672306" lon="10.223638">
        <ele>637.243426</ele>
        <time>2023-12-27T11:58:10.194Z</time>
      </trkpt>
      <trkpt lat="45.672337" lon="10.223520">
        <ele>635.198860</ele>
        <time>2023-12-27T11:58:11.905Z</time>
      </trkpt>
      <trkpt lat="45.672408" lon="10.223384">
        <ele>632.445531</ele>
        <time>2023-12-27T11:58:14.212Z</time>
      </trkpt>
      <trkpt lat="45.672438" lon="10.223342">
        <ele>631.471445</ele>
        <time>2023-12-27T11:58:15.035Z</time>
      </trkpt>
      <trkpt lat="45.672423" lon="10.223281">
        <ele>630.422650</ele>
        <time>2023-12-27T11:58:15.921Z</time>
      </trkpt>
      <trkpt lat="45.672207" lon="10.223260">
        <ele>625.273089</ele>
        <time>2023-12-27T11:58:20.155Z</time>
      </trkpt>
      <trkpt lat="45.672113" lon="10.223180">
        <ele>622.385120</ele>
        <time>2023-12-27T11:58:22.270Z</time>
      </trkpt>
      <trkpt lat="45.672090" lon="10.223089">
        <ele>620.599535</ele>
        <time>2023-12-27T11:58:23.597Z</time>
      </trkpt>
      <trkpt lat="45.672021" lon="10.223083">
        <ele>618.774129</ele>
        <time>2023-12-27T11:58:24.942Z</time>
      </trkpt>
      <trkpt lat="45.671909" lon="10.223142">
        <ele>615.622602</ele>
        <time>2023-12-27T11:58:27.289Z</time>
      </trkpt>
      <trkpt lat="45.671858" lon="10.223118">
        <ele>614.204930</ele>
        <time>2023-12-27T11:58:28.321Z</time>
      </trkpt>
      <trkpt lat="45.671833" lon="10.223053">
        <ele>612.835873</ele>
        <time>2023-12-27T11:58:29.321Z</time>
      </trkpt>
      <trkpt lat="45.671793" lon="10.222951">
        <ele>610.677637</ele>
        <time>2023-12-27T11:58:30.913Z</time>
      </trkpt>
      <trkpt lat="45.671744" lon="10.222911">
        <ele>609.188013</ele>
        <time>2023-12-27T11:58:32.013Z</time>
      </trkpt>
      <trkpt lat="45.671387" lon="10.222763">
        <ele>599.373325</ele>
        <time>2023-12-27T11:58:39.208Z</time>
      </trkpt>
      <trkpt lat="45.671227" lon="10.222665">
        <ele>594.777579</ele>
        <time>2023-12-27T11:58:42.598Z</time>
      </trkpt>
      <trkpt lat="45.671116" lon="10.222633">
        <ele>591.787580</ele>
        <time>2023-12-27T11:58:44.789Z</time>
      </trkpt>
      <trkpt lat="45.670927" lon="10.222703">
        <ele>586.632325</ele>
        <time>2023-12-27T11:58:48.627Z</time>
      </trkpt>
      <trkpt lat="45.670955" lon="10.222606">
        <ele>584.695753</ele>
        <time>2023-12-27T11:58:50.049Z</time>
      </trkpt>
      <trkpt lat="45.670845" lon="10.222442">
        <ele>580.501107</ele>
        <time>2023-12-27T11:58:53.162Z</time>
      </trkpt>
      <trkpt lat="45.670840" lon="10.222360">
        <ele>578.982270</ele>
        <time>2023-12-27T11:58:54.284Z</time>
      </trkpt>
      <trkpt lat="45.670663" lon="10.222252">
        <ele>573.643486</ele>
        <time>2023-12-27T11:58:58.075Z</time>
      </trkpt>
      <trkpt lat="45.670677" lon="10.222163">
        <ele>571.871689</ele>
        <time>2023-12-27T11:58:59.321Z</time>
      </trkpt>
      <trkpt lat="45.670706" lon="10.222125">
        <ele>570.778823</ele>
        <time>2023-12-27T11:59:00.099Z</time>
      </trkpt>
      <trkpt lat="45.670714" lon="10.222017">
        <ele>568.669517</ele>
        <time>2023-12-27T11:59:01.589Z</time>
      </trkpt>
      <trkpt lat="45.670812" lon="10.221900">
        <ele>565.122318</ele>
        <time>2023-12-27T11:59:04.092Z</time>
      </trkpt>
      <trkpt lat="45.670977" lon="10.221788">
        <ele>560.046606</ele>
        <time>2023-12-27T11:59:07.652Z</time>
      </trkpt>
      <trkpt lat="45.670843" lon="10.221673">
        <ele>555.703858</ele>
        <time>2023-12-27T11:59:10.705Z</time>
      </trkpt>
      <trkpt lat="45.670727" lon="10.221607">
        <ele>552.234302</ele>
        <time>2023-12-27T11:59:13.141Z</time>
      </trkpt>
      <trkpt lat="45.670564" lon="10.221573">
        <ele>547.656037</ele>
        <time>2023-12-27T11:59:16.354Z</time>
      </trkpt>
      <trkpt lat="45.670307" lon="10.221701">
        <ele>540.092782</ele>
        <time>2023-12-27T11:59:21.607Z</time>
      </trkpt>
      <trkpt lat="45.670240" lon="10.221716">
        <ele>538.207946</ele>
        <time>2023-12-27T11:59:22.918Z</time>
      </trkpt>
      <trkpt lat="45.670265" lon="10.221654">
        <ele>536.817689</ele>
        <time>2023-12-27T11:59:23.876Z</time>
      </trkpt>
      <trkpt lat="45.670189" lon="10.221640">
        <ele>534.687930</ele>
        <time>2023-12-27T11:59:25.367Z</time>
      </trkpt>
      <trkpt lat="45.669945" lon="10.221739">
        <ele>527.560437</ele>
        <time>2023-12-27T11:59:30.293Z</time>
      </trkpt>
      <trkpt lat="45.669896" lon="10.221707">
        <ele>525.963553</ele>
        <time>2023-12-27T11:59:31.343Z</time>
      </trkpt>
      <trkpt lat="45.669834" lon="10.221718">
        <ele>524.111297</ele>
        <time>2023-12-27T11:59:32.573Z</time>
      </trkpt>
      <trkpt lat="45.669744" lon="10.221771">
        <ele>521.225868</ele>
        <time>2023-12-27T11:59:34.470Z</time>
      </trkpt>
      <trkpt lat="45.669776" lon="10.221426">
        <ele>514.015504</ele>
        <time>2023-12-27T11:59:39.265Z</time>
      </trkpt>
      <trkpt lat="45.669835" lon="10.221269">
        <ele>510.322275</ele>
        <time>2023-12-27T11:59:41.717Z</time>
      </trkpt>
      <trkpt lat="45.669952" lon="10.221106">
        <ele>505.481100</ele>
        <time>2023-12-27T11:59:44.941Z</time>
      </trkpt>
      <trkpt lat="45.669870" lon="10.221088">
        <ele>503.021519</ele>
        <time>2023-12-27T11:59:46.594Z</time>
      </trkpt>
      <trkpt lat="45.669908" lon="10.221024">
        <ele>501.281572</ele>
        <time>2023-12-27T11:59:47.748Z</time>
      </trkpt>
      <trkpt lat="45.669780" lon="10.220954">
        <ele>497.218944</ele>
        <time>2023-12-27T11:59:50.454Z</time>
      </trkpt>
      <trkpt lat="45.669534" lon="10.220969">
        <ele>489.918889</ele>
        <time>2023-12-27T11:59:55.305Z</time>
      </trkpt>
      <trkpt lat="45.669355" lon="10.221025">
        <ele>484.486535</ele>
        <time>2023-12-27T11:59:58.910Z</time>
      </trkpt>
      <trkpt lat="45.669192" lon="10.221103">
        <ele>479.390857</ele>
        <time>2023-12-27T12:00:02.270Z</time>
      </trkpt>
      <trkpt lat="45.668981" lon="10.221375">
        <ele>472.519276</ele>
        <time>2023-12-27T12:00:07.813Z</time>
      </trkpt>
      <trkpt lat="45.668982" lon="10.221282">
        <ele>471.252581</ele>
        <time>2023-12-27T12:00:09.085Z</time>
      </trkpt>
      <trkpt lat="45.668942" lon="10.221178">
        <ele>469.635872</ele>
        <time>2023-12-27T12:00:10.701Z</time>
      </trkpt>
      <trkpt lat="45.668917" lon="10.221010">
        <ele>467.296617</ele>
        <time>2023-12-27T12:00:13.027Z</time>
      </trkpt>
      <trkpt lat="45.668777" lon="10.221201">
        <ele>463.526940</ele>
        <time>2023-12-27T12:00:16.777Z</time>
      </trkpt>
      <trkpt lat="45.668727" lon="10.221217">
        <ele>462.528439</ele>
        <time>2023-12-27T12:00:17.771Z</time>
      </trkpt>
      <trkpt lat="45.668647" lon="10.221250">
        <ele>460.905860</ele>
        <time>2023-12-27T12:00:19.416Z</time>
      </trkpt>
      <trkpt lat="45.668557" lon="10.221245">
        <ele>459.150555</ele>
        <time>2023-12-27T12:00:21.184Z</time>
      </trkpt>
      <trkpt lat="45.668422" lon="10.221376">
        <ele>455.971726</ele>
        <time>2023-12-27T12:00:24.351Z</time>
      </trkpt>
      <trkpt lat="45.668283" lon="10.221309">
        <ele>453.113247</ele>
        <time>2023-12-27T12:00:27.279Z</time>
      </trkpt>
      <trkpt lat="45.668262" lon="10.221333">
        <ele>452.589482</ele>
        <time>2023-12-27T12:00:27.807Z</time>
      </trkpt>
      <trkpt lat="45.668275" lon="10.221429">
        <ele>451.257743</ele>
        <time>2023-12-27T12:00:29.155Z</time>
      </trkpt>
      <trkpt lat="45.668245" lon="10.221578">
        <ele>449.145973</ele>
        <time>2023-12-27T12:00:31.295Z</time>
      </trkpt>
      <trkpt lat="45.668197" lon="10.221668">
        <ele>447.604080</ele>
        <time>2023-12-27T12:00:32.911Z</time>
      </trkpt>
      <trkpt lat="45.668085" lon="10.221696">
        <ele>445.388285</ele>
        <time>2023-12-27T12:00:35.264Z</time>
      </trkpt>
      <trkpt lat="45.668019" lon="10.221817">
        <ele>443.297826</ele>
        <time>2023-12-27T12:00:37.418Z</time>
      </trkpt>
      <trkpt lat="45.667998" lon="10.222024">
        <ele>440.449142</ele>
        <time>2023-12-27T12:00:40.560Z</time>
      </trkpt>
      <trkpt lat="45.667910" lon="10.222040">
        <ele>439.536686</ele>
        <time>2023-12-27T12:00:42.552Z</time>
      </trkpt>
      <trkpt lat="45.667878" lon="10.222019">
        <ele>439.177088</ele>
        <time>2023-12-27T12:00:43.299Z</time>
      </trkpt>
      <trkpt lat="45.667837" lon="10.221918">
        <ele>438.343330</ele>
        <time>2023-12-27T12:00:45.016Z</time>
      </trkpt>
      <trkpt lat="45.667807" lon="10.222169">
        <ele>436.525653</ele>
        <time>2023-12-27T12:00:49.027Z</time>
      </trkpt>
      <trkpt lat="45.667796" lon="10.222230">
        <ele>436.075966</ele>
        <time>2023-12-27T12:00:50.051Z</time>
      </trkpt>
      <trkpt lat="45.667723" lon="10.222231">
        <ele>435.330272</ele>
        <time>2023-12-27T12:00:55.124Z</time>
      </trkpt>
      <trkpt lat="45.667662" lon="10.222163">
        <ele>434.540436</ele>
        <time>2023-12-27T12:00:56.725Z</time>
      </trkpt>
      <trkpt lat="45.667525" lon="10.221967">
        <ele>432.561625</ele>
        <time>2023-12-27T12:00:59.553Z</time>
      </trkpt>
      <trkpt lat="45.667251" lon="10.221906">
        <ele>429.729176</ele>
        <time>2023-12-27T12:01:03.434Z</time>
      </trkpt>
      <trkpt lat="45.667054" lon="10.221791">
        <ele>427.555916</ele>
        <time>2023-12-27T12:01:06.332Z</time>
      </trkpt>
      <trkpt lat="45.667030" lon="10.221777">
        <ele>427.291181</ele>
        <time>2023-12-27T12:01:06.673Z</time>
      </trkpt>
      <trkpt lat="45.666565" lon="10.221669">
        <ele>422.479268</ele>
        <time>2023-12-27T12:01:13.108Z</time>
      </trkpt>
      <trkpt lat="45.666511" lon="10.221584">
        <ele>421.447891</ele>
        <time>2023-12-27T12:01:14.179Z</time>
      </trkpt>
      <trkpt lat="45.666409" lon="10.221306">
        <ele>418.034544</ele>
        <time>2023-12-27T12:01:17.018Z</time>
      </trkpt>
      <trkpt lat="45.666343" lon="10.221098">
        <ele>415.551203</ele>
        <time>2023-12-27T12:01:18.832Z</time>
      </trkpt>
      <trkpt lat="45.666232" lon="10.220952">
        <ele>413.205862</ele>
        <time>2023-12-27T12:01:20.535Z</time>
      </trkpt>
      <trkpt lat="45.666091" lon="10.220900">
        <ele>410.940805</ele>
        <time>2023-12-27T12:01:22.209Z</time>
      </trkpt>
      <trkpt lat="45.665653" lon="10.220281">
        <ele>401.364481</ele>
        <time>2023-12-27T12:01:29.127Z</time>
      </trkpt>
      <trkpt lat="45.665453" lon="10.220173">
        <ele>398.039135</ele>
        <time>2023-12-27T12:01:31.516Z</time>
      </trkpt>
      <trkpt lat="45.665133" lon="10.220094">
        <ele>393.148361</ele>
        <time>2023-12-27T12:01:35.149Z</time>
      </trkpt>
      <trkpt lat="45.664880" lon="10.219878">
        <ele>389.237046</ele>
        <time>2023-12-27T12:01:38.482Z</time>
      </trkpt>
      <trkpt lat="45.664884" lon="10.219794">
        <ele>388.455876</ele>
        <time>2023-12-27T12:01:39.146Z</time>
      </trkpt>
      <trkpt lat="45.664850" lon="10.219598">
        <ele>386.582177</ele>
        <time>2023-12-27T12:01:40.754Z</time>
      </trkpt>
      <trkpt lat="45.664824" lon="10.219487">
        <ele>385.495996</ele>
        <time>2023-12-27T12:01:41.695Z</time>
      </trkpt>
      <trkpt lat="45.664758" lon="10.219235">
        <ele>382.999106</ele>
        <time>2023-12-27T12:01:43.852Z</time>
      </trkpt>
      <trkpt lat="45.664685" lon="10.219097">
        <ele>381.393284</ele>
        <time>2023-12-27T12:01:45.246Z</time>
      </trkpt>
      <trkpt lat="45.664284" lon="10.218677">
        <ele>374.795724</ele>
        <time>2023-12-27T12:01:51.082Z</time>
      </trkpt>
      <trkpt lat="45.663751" lon="10.218113">
        <ele>367.569186</ele>
        <time>2023-12-27T12:01:58.956Z</time>
      </trkpt>
      <trkpt lat="45.663275" lon="10.217591">
        <ele>362.584699</ele>
        <time>2023-12-27T12:02:06.337Z</time>
      </trkpt>
      <trkpt lat="45.663185" lon="10.217496">
        <ele>361.655161</ele>
        <time>2023-12-27T12:02:07.719Z</time>
      </trkpt>
      <trkpt lat="45.662809" lon="10.217120">
        <ele>357.842530</ele>
        <time>2023-12-27T12:02:13.466Z</time>
      </trkpt>
      <trkpt lat="45.662421" lon="10.216894">
        <ele>354.550932</ele>
        <time>2023-12-27T12:02:18.794Z</time>
      </trkpt>
      <trkpt lat="45.662374" lon="10.216860">
        <ele>354.206235</ele>
        <time>2023-12-27T12:02:19.479Z</time>
      </trkpt>
      <trkpt lat="45.662269" lon="10.216696">
        <ele>353.188860</ele>
        <time>2023-12-27T12:02:21.434Z</time>
      </trkpt>
      <trkpt lat="45.661993" lon="10.215895">
        <ele>349.103768</ele>
        <time>2023-12-27T12:02:29.259Z</time>
      </trkpt>
      <trkpt lat="45.661498" lon="10.215120">
        <ele>344.301282</ele>
        <time>2023-12-27T12:02:38.642Z</time>
      </trkpt>
      <trkpt lat="45.661231" lon="10.214646">
        <ele>342.296459</ele>
        <time>2023-12-27T12:02:44.204Z</time>
      </trkpt>
      <trkpt lat="45.660823" lon="10.213886">
        <ele>339.651077</ele>
        <time>2023-12-27T12:02:53.514Z</time>
      </trkpt>
      <trkpt lat="45.660691" lon="10.213586">
        <ele>338.672504</ele>
        <time>2023-12-27T12:02:57.052Z</time>
      </trkpt>
      <trkpt lat="45.660708" lon="10.213525">
        <ele>338.491224</ele>
        <time>2023-12-27T12:02:57.763Z</time>
      </trkpt>
      <trkpt lat="45.660688" lon="10.213467">
        <ele>338.312692</ele>
        <time>2023-12-27T12:02:58.477Z</time>
      </trkpt>
      <trkpt lat="45.660622" lon="10.213461">
        <ele>338.051490</ele>
        <time>2023-12-27T12:02:59.446Z</time>
      </trkpt>
      <trkpt lat="45.660539" lon="10.213224">
        <ele>337.319728</ele>
        <time>2023-12-27T12:03:02.281Z</time>
      </trkpt>
      <trkpt lat="45.660329" lon="10.212363">
        <ele>334.928593</ele>
        <time>2023-12-27T12:03:12.400Z</time>
      </trkpt>
      <trkpt lat="45.660148" lon="10.211616">
        <ele>332.920751</ele>
        <time>2023-12-27T12:03:21.154Z</time>
      </trkpt>
      <trkpt lat="45.660102" lon="10.211498">
        <ele>332.577616</ele>
        <time>2023-12-27T12:03:22.659Z</time>
      </trkpt>
      <trkpt lat="45.659865" lon="10.211082">
        <ele>331.214624</ele>
        <time>2023-12-27T12:03:28.409Z</time>
      </trkpt>
      <trkpt lat="45.659737" lon="10.210859">
        <ele>330.481783</ele>
        <time>2023-12-27T12:03:31.339Z</time>
      </trkpt>
      <trkpt lat="45.659254" lon="10.209989">
        <ele>324.960194</ele>
        <time>2023-12-27T12:03:41.805Z</time>
      </trkpt>
      <trkpt lat="45.659216" lon="10.209930">
        <ele>324.504515</ele>
        <time>2023-12-27T12:03:42.521Z</time>
      </trkpt>
      <trkpt lat="45.659029" lon="10.209691">
        <ele>322.466921</ele>
        <time>2023-12-27T12:03:45.733Z</time>
      </trkpt>
      <trkpt lat="45.658750" lon="10.209472">
        <ele>319.880925</ele>
        <time>2023-12-27T12:03:49.824Z</time>
      </trkpt>
      <trkpt lat="45.658395" lon="10.209070">
        <ele>316.201905</ele>
        <time>2023-12-27T12:03:55.673Z</time>
      </trkpt>
      <trkpt lat="45.658092" lon="10.208585">
        <ele>312.455497</ele>
        <time>2023-12-27T12:04:01.536Z</time>
      </trkpt>
      <trkpt lat="45.657977" lon="10.208379">
        <ele>310.929609</ele>
        <time>2023-12-27T12:04:03.941Z</time>
      </trkpt>
      <trkpt lat="45.657946" lon="10.208225">
        <ele>310.002073</ele>
        <time>2023-12-27T12:04:05.290Z</time>
      </trkpt>
      <trkpt lat="45.657799" lon="10.207786">
        <ele>307.184730</ele>
        <time>2023-12-27T12:04:09.437Z</time>
      </trkpt>
      <trkpt lat="45.657687" lon="10.207570">
        <ele>305.628127</ele>
        <time>2023-12-27T12:04:11.715Z</time>
      </trkpt>
      <trkpt lat="45.657303" lon="10.207031">
        <ele>301.173587</ele>
        <time>2023-12-27T12:04:18.322Z</time>
      </trkpt>
      <trkpt lat="45.657053" lon="10.206747">
        <ele>299.166108</ele>
        <time>2023-12-27T12:04:22.440Z</time>
      </trkpt>
      <trkpt lat="45.656799" lon="10.206513">
        <ele>297.546562</ele>
        <time>2023-12-27T12:04:26.467Z</time>
      </trkpt>
      <trkpt lat="45.656291" lon="10.206101">
        <ele>294.416090</ele>
        <time>2023-12-27T12:04:34.237Z</time>
      </trkpt>
      <trkpt lat="45.656156" lon="10.205979">
        <ele>293.560080</ele>
        <time>2023-12-27T12:04:36.378Z</time>
      </trkpt>
      <trkpt lat="45.655990" lon="10.205769">
        <ele>292.372170</ele>
        <time>2023-12-27T12:04:39.338Z</time>
      </trkpt>
      <trkpt lat="45.655720" lon="10.205162">
        <ele>289.759315</ele>
        <time>2023-12-27T12:04:46.151Z</time>
      </trkpt>
      <trkpt lat="45.655401" lon="10.204398">
        <ele>286.697740</ele>
        <time>2023-12-27T12:04:54.558Z</time>
      </trkpt>
      <trkpt lat="45.655268" lon="10.203389">
        <ele>283.165355</ele>
        <time>2023-12-27T12:05:04.119Z</time>
      </trkpt>
      <trkpt lat="45.655088" lon="10.202866">
        <ele>281.173592</ele>
        <time>2023-12-27T12:05:09.481Z</time>
      </trkpt>
      <trkpt lat="45.655101" lon="10.202701">
        <ele>280.613946</ele>
        <time>2023-12-27T12:05:11.005Z</time>
      </trkpt>
      <trkpt lat="45.655118" lon="10.202672">
        <ele>280.486379</ele>
        <time>2023-12-27T12:05:11.364Z</time>
      </trkpt>
      <trkpt lat="45.655126" lon="10.202640">
        <ele>280.371833</ele>
        <time>2023-12-27T12:05:11.686Z</time>
      </trkpt>
      <trkpt lat="45.655121" lon="10.202573">
        <ele>280.144730</ele>
        <time>2023-12-27T12:05:12.314Z</time>
      </trkpt>
      <trkpt lat="45.655090" lon="10.202522">
        <ele>279.916932</ele>
        <time>2023-12-27T12:05:12.939Z</time>
      </trkpt>
      <trkpt lat="45.655036" lon="10.202509">
        <ele>279.652884</ele>
        <time>2023-12-27T12:05:13.653Z</time>
      </trkpt>
      <trkpt lat="45.654904" lon="10.202365">
        <ele>278.852449</ele>
        <time>2023-12-27T12:05:15.861Z</time>
      </trkpt>
      <trkpt lat="45.654643" lon="10.201561">
        <ele>275.864598</ele>
        <time>2023-12-27T12:05:24.041Z</time>
      </trkpt>
      <trkpt lat="45.654531" lon="10.201232">
        <ele>274.631188</ele>
        <time>2023-12-27T12:05:27.528Z</time>
      </trkpt>
      <trkpt lat="45.654384" lon="10.200793">
        <ele>273.072225</ele>
        <time>2023-12-27T12:05:32.229Z</time>
      </trkpt>
      <trkpt lat="45.654269" lon="10.200451">
        <ele>272.389913</ele>
        <time>2023-12-27T12:05:35.933Z</time>
      </trkpt>
      <trkpt lat="45.654173" lon="10.200049">
        <ele>271.626161</ele>
        <time>2023-12-27T12:05:40.259Z</time>
      </trkpt>
      <trkpt lat="45.654178" lon="10.199959">
        <ele>271.463844</ele>
        <time>2023-12-27T12:05:41.206Z</time>
      </trkpt>
      <trkpt lat="45.654109" lon="10.199809">
        <ele>271.141008</ele>
        <time>2023-12-27T12:05:43.093Z</time>
      </trkpt>
      <trkpt lat="45.654026" lon="10.199780">
        <ele>270.921251</ele>
        <time>2023-12-27T12:05:44.373Z</time>
      </trkpt>
      <trkpt lat="45.653958" lon="10.199811">
        <ele>270.737684</ele>
        <time>2023-12-27T12:05:45.482Z</time>
      </trkpt>
      <trkpt lat="45.653892" lon="10.199951">
        <ele>270.434087</ele>
        <time>2023-12-27T12:05:47.347Z</time>
      </trkpt>
      <trkpt lat="45.653900" lon="10.200066">
        <ele>270.226312</ele>
        <time>2023-12-27T12:05:48.612Z</time>
      </trkpt>
      <trkpt lat="45.653932" lon="10.200135">
        <ele>270.077438</ele>
        <time>2023-12-27T12:05:49.521Z</time>
      </trkpt>
      <trkpt lat="45.654038" lon="10.200195">
        <ele>269.784233</ele>
        <time>2023-12-27T12:05:51.329Z</time>
      </trkpt>
      <trkpt lat="45.654122" lon="10.200153">
        <ele>269.555363</ele>
        <time>2023-12-27T12:05:52.751Z</time>
      </trkpt>
      <trkpt lat="45.654135" lon="10.200128">
        <ele>269.499343</ele>
        <time>2023-12-27T12:05:53.091Z</time>
      </trkpt>
      <trkpt lat="45.654173" lon="10.200049">
        <ele>269.326932</ele>
        <time>2023-12-27T12:05:54.143Z</time>
      </trkpt>
      <trkpt lat="45.654178" lon="10.199959">
        <ele>269.164615</ele>
        <time>2023-12-27T12:05:55.111Z</time>
      </trkpt>
      <trkpt lat="45.654109" lon="10.199809">
        <ele>268.841779</ele>
        <time>2023-12-27T12:05:57.073Z</time>
      </trkpt>
      <trkpt lat="45.654026" lon="10.199780">
        <ele>268.622022</ele>
        <time>2023-12-27T12:05:58.418Z</time>
      </trkpt>
      <trkpt lat="45.653958" lon="10.199811">
        <ele>268.461163</ele>
        <time>2023-12-27T12:05:59.511Z</time>
      </trkpt>
      <trkpt lat="45.653687" lon="10.199972">
        <ele>267.876243</ele>
        <time>2023-12-27T12:06:04.053Z</time>
      </trkpt>
      <trkpt lat="45.653602" lon="10.200001">
        <ele>267.702058</ele>
        <time>2023-12-27T12:06:05.426Z</time>
      </trkpt>
      <trkpt lat="45.653220" lon="10.200132">
        <ele>266.919034</ele>
        <time>2023-12-27T12:06:11.772Z</time>
      </trkpt>
      <trkpt lat="45.652988" lon="10.200204">
        <ele>266.445824</ele>
        <time>2023-12-27T12:06:15.372Z</time>
      </trkpt>
      <trkpt lat="45.652788" lon="10.199123">
        <ele>264.878140</ele>
        <time>2023-12-27T12:06:28.025Z</time>
      </trkpt>
      <trkpt lat="45.652326" lon="10.199222">
        <ele>263.812045</ele>
        <time>2023-12-27T12:06:35.664Z</time>
      </trkpt>
      <trkpt lat="45.652267" lon="10.198811">
        <ele>263.142728</ele>
        <time>2023-12-27T12:06:40.302Z</time>
      </trkpt>
      <trkpt lat="45.651780" lon="10.198945">
        <ele>262.010972</ele>
        <time>2023-12-27T12:06:48.717Z</time>
      </trkpt>
      <trkpt lat="45.651492" lon="10.198938">
        <ele>261.353631</ele>
        <time>2023-12-27T12:06:53.668Z</time>
      </trkpt>
      <trkpt lat="45.651230" lon="10.198874">
        <ele>260.779083</ele>
        <time>2023-12-27T12:06:58.297Z</time>
      </trkpt>
      <trkpt lat="45.650477" lon="10.198511">
        <ele>259.533161</ele>
        <time>2023-12-27T12:07:12.626Z</time>
      </trkpt>
      <trkpt lat="45.650238" lon="10.198480">
        <ele>259.156877</ele>
        <time>2023-12-27T12:07:17.087Z</time>
      </trkpt>
      <trkpt lat="45.650156" lon="10.198443">
        <ele>259.022059</ele>
        <time>2023-12-27T12:07:18.683Z</time>
      </trkpt>
      <trkpt lat="45.649980" lon="10.198295">
        <ele>258.701947</ele>
        <time>2023-12-27T12:07:22.401Z</time>
      </trkpt>
      <trkpt lat="45.649856" lon="10.198245">
        <ele>258.499942</ele>
        <time>2023-12-27T12:07:24.777Z</time>
      </trkpt>
      <trkpt lat="45.649692" lon="10.198267">
        <ele>258.241666</ele>
        <time>2023-12-27T12:07:27.743Z</time>
      </trkpt>
      <trkpt lat="45.649312" lon="10.198467">
        <ele>258.029151</ele>
        <time>2023-12-27T12:07:35.125Z</time>
      </trkpt>
      <trkpt lat="45.649055" lon="10.198537">
        <ele>258.029151</ele>
        <time>2023-12-27T12:07:40.056Z</time>
      </trkpt>
      <trkpt lat="45.648820" lon="10.198543">
        <ele>258.029151</ele>
        <time>2023-12-27T12:07:44.650Z</time>
      </trkpt>
      <trkpt lat="45.648190" lon="10.198644">
        <ele>258.029151</ele>
        <time>2023-12-27T12:07:57.367Z</time>
      </trkpt>
      <trkpt lat="45.647865" lon="10.198583">
        <ele>258.029151</ele>
        <time>2023-12-27T12:08:03.993Z</time>
      </trkpt>
    </trkseg>
  </trk>
</gpx>